Observation data for Sterling City on 12/08/2019      Previous  Date       Current Mesonet Observations  Soil Data  Daily Summary Page  Observations in Plain Language
KSC1 080600Z 28002KT 12/03 A301 RMK A01 T01160028  RH  055%=      5-min Rain = 0
KSC1 080601Z 23005KT 12/03 A301 RMK A01 T01150028  RH  055%=      5-min Rain = 0
KSC1 080602Z 24004KT 11/03 A301 RMK A01 T01140029  RH  056%=      5-min Rain = 0
KSC1 080603Z 24002KT 12/03 A301 RMK A01 T01160030  RH  055%=      5-min Rain = 0
KSC1 080604Z 28002KT 12/03 A301 RMK A01 T01180030  RH  055%=      5-min Rain = 0
KSC1 080605Z 30002KT 12/03 A301 RMK A01 T01170029  RH  055%=      5-min Rain = 0
KSC1 080606Z 31002KT 12/03 A301 RMK A01 T01170029  RH  055%=      5-min Rain = 0
KSC1 080607Z 30001KT 12/03 A301 RMK A01 T01170029  RH  055%=      5-min Rain = 0
KSC1 080608Z 29001KT 12/03 A301 RMK A01 T01160028  RH  055%=      5-min Rain = 0
KSC1 080609Z 31001KT 12/03 A301 RMK A01 T01150028  RH  055%=      5-min Rain = 0
KSC1 080610Z 33001KT 12/03 A301 RMK A01 T01150029  RH  055%=      5-min Rain = 0
KSC1 080611Z 34002KT 12/03 A3009 RMK A01 T01150029  RH  055%=      5-min Rain = 0
KSC1 080612Z 30000KT 12/03 A301 RMK A01 T01150029  RH  055%=      5-min Rain = 0
KSC1 080613Z 36002KT 12/03 A301 RMK A01 T01160029  RH  055%=      5-min Rain = 0
KSC1 080614Z 35002KT 12/03 A3009 RMK A01 T01160029  RH  055%=      5-min Rain = 0
KSC1 080615Z 35002KT 12/03 A3009 RMK A01 T01160028  RH  055%=      5-min Rain = 0
KSC1 080616Z 34001KT 12/03 A301 RMK A01 T01150028  RH  055%=      5-min Rain = 0
KSC1 080617Z 29001KT 11/03 A301 RMK A01 T01130027  RH  055%=      5-min Rain = 0
KSC1 080618Z 32001KT 11/03 A301 RMK A01 T01120027  RH  056%=      5-min Rain = 0
KSC1 080619Z 30002KT 11/03 A301 RMK A01 T01120027  RH  056%=      5-min Rain = 0
KSC1 080620Z 27001KT 11/03 A301 RMK A01 T01110028  RH  056%=      5-min Rain = 0
KSC1 080621Z 26001KT 11/03 A301 RMK A01 T01100027  RH  056%=      5-min Rain = 0
KSC1 080622Z 25001KT 11/03 A301 RMK A01 T01090026  RH  056%=      5-min Rain = 0
KSC1 080623Z 28001KT 11/03 A301 RMK A01 T01080026  RH  057%=      5-min Rain = 0
KSC1 080624Z 23001KT 11/03 A301 RMK A01 T01080028  RH  058%=      5-min Rain = 0
KSC1 080625Z 22002KT 11/03 A301 RMK A01 T01100029  RH  057%=      5-min Rain = 0
KSC1 080626Z 23001KT 11/03 A301 RMK A01 T01110028  RH  057%=      5-min Rain = 0
KSC1 080627Z 23001KT 11/03 A301 RMK A01 T01110027  RH  056%=      5-min Rain = 0
KSC1 080628Z 16001KT 11/03 A3009 RMK A01 T01100028  RH  057%=      5-min Rain = 0
KSC1 080629Z 27002KT 11/03 A3009 RMK A01 T01100028  RH  057%=      5-min Rain = 0
KSC1 080630Z 22002KT 11/03 A3009 RMK A01 T01100028  RH  057%=      5-min Rain = 0
KSC1 080631Z 21004KT 11/03 A3009 RMK A01 T01110029  RH  057%=      5-min Rain = 0
KSC1 080632Z 20003KT 11/03 A3009 RMK A01 T01120030  RH  057%=      5-min Rain = 0
KSC1 080633Z 21002KT 11/03 A3009 RMK A01 T01130029  RH  056%=      5-min Rain = 0
KSC1 080634Z 21002KT 11/03 A3009 RMK A01 T01130029  RH  056%=      5-min Rain = 0
KSC1 080635Z 20005KT 11/03 A3009 RMK A01 T01130029  RH  056%=      5-min Rain = 0
KSC1 080636Z 21003KT 11/03 A3009 RMK A01 T01130029  RH  056%=      5-min Rain = 0
KSC1 080637Z 17002KT 11/03 A3009 RMK A01 T01130028  RH  056%=      5-min Rain = 0
KSC1 080638Z 19001KT 11/03 A3009 RMK A01 T01130029  RH  056%=      5-min Rain = 0
KSC1 080639Z 18001KT 11/03 A3009 RMK A01 T01130029  RH  056%=      5-min Rain = 0
KSC1 080640Z 18000KT 11/03 A3009 RMK A01 T01130029  RH  056%=      5-min Rain = 0
KSC1 080641Z 20001KT 11/03 A3009 RMK A01 T01130029  RH  056%=      5-min Rain = 0
KSC1 080642Z 21002KT 11/03 A3009 RMK A01 T01120029  RH  057%=      5-min Rain = 0
KSC1 080643Z 18002KT 11/03 A3009 RMK A01 T01120029  RH  057%=      5-min Rain = 0
KSC1 080644Z 20003KT 11/03 A3009 RMK A01 T01110028  RH  057%=      5-min Rain = 0
KSC1 080645Z 17003KT 11/03 A3009 RMK A01 T01100028  RH  057%=      5-min Rain = 0
KSC1 080646Z 16002KT 11/03 A3008 RMK A01 T01110029  RH  057%=      5-min Rain = 0
KSC1 080647Z 21001KT 11/03 A3008 RMK A01 T01110029  RH  057%=      5-min Rain = 0
KSC1 080648Z 22000KT 11/03 A3008 RMK A01 T01110029  RH  057%=      5-min Rain = 0
KSC1 080649Z 21000KT 11/03 A3008 RMK A01 T01110029  RH  057%=      5-min Rain = 0
KSC1 080650Z 17001KT 11/03 A3008 RMK A01 T01100028  RH  057%=      5-min Rain = 0
KSC1 080651Z 17001KT 11/03 A3008 RMK A01 T01090028  RH  057%=      5-min Rain = 0
KSC1 080652Z 16001KT 11/03 A3008 RMK A01 T01080028  RH  058%=      5-min Rain = 0
KSC1 080653Z 16001KT 11/03 A3008 RMK A01 T01090029  RH  058%=      5-min Rain = 0
KSC1 080654Z 17002KT 11/03 A3008 RMK A01 T01080029  RH  058%=      5-min Rain = 0
KSC1 080655Z 16002KT 11/03 A3007 RMK A01 T01080028  RH  058%=      5-min Rain = 0
KSC1 080656Z 18004KT 11/03 A3007 RMK A01 T01080029  RH  058%=      5-min Rain = 0
KSC1 080657Z 15004KT 11/03 A3007 RMK A01 T01090029  RH  058%=      5-min Rain = 0
KSC1 080658Z 16004KT 11/03 A3007 RMK A01 T01100030  RH  058%=      5-min Rain = 0
KSC1 080659Z 16002KT 11/03 A3007 RMK A01 T01090029  RH  058%=      5-min Rain = 0
KSC1 080700Z 17004KT 11/03 A3007 RMK A01 T01080029  RH  058%=      5-min Rain = 0
KSC1 080701Z 17003KT 11/03 A3007 RMK A01 T01080029  RH  058%=      5-min Rain = 0
KSC1 080702Z 18003KT 11/03 A3007 RMK A01 T01070029  RH  058%=      5-min Rain = 0
KSC1 080703Z 18003KT 11/03 A3007 RMK A01 T01070029  RH  059%=      5-min Rain = 0
KSC1 080704Z 17003KT 11/03 A3007 RMK A01 T01070029  RH  059%=      5-min Rain = 0
KSC1 080705Z 18004KT 11/03 A3007 RMK A01 T01060029  RH  059%=      5-min Rain = 0
KSC1 080706Z 19004KT 11/03 A3007 RMK A01 T01060029  RH  059%=      5-min Rain = 0
KSC1 080707Z 16005KT 11/03 A3007 RMK A01 T01080030  RH  059%=      5-min Rain = 0
KSC1 080708Z 18004KT 11/03 A3007 RMK A01 T01100031  RH  058%=      5-min Rain = 0
KSC1 080709Z 17003KT 11/03 A3007 RMK A01 T01100030  RH  058%=      5-min Rain = 0
KSC1 080710Z 17003KT 11/03 A3007 RMK A01 T01100030  RH  058%=      5-min Rain = 0
KSC1 080711Z 16003KT 11/03 A3006 RMK A01 T01100030  RH  058%=      5-min Rain = 0
KSC1 080712Z 18003KT 11/03 A3006 RMK A01 T01100030  RH  058%=      5-min Rain = 0
KSC1 080713Z 17003KT 11/03 A3006 RMK A01 T01090030  RH  058%=      5-min Rain = 0
KSC1 080714Z 17007KT 11/03 A3006 RMK A01 T01090030  RH  058%=      5-min Rain = 0
KSC1 080715Z 17005KT 11/03 A3006 RMK A01 T01080030  RH  058%=      5-min Rain = 0
KSC1 080716Z 19005KT 11/03 A3006 RMK A01 T01080030  RH  058%=      5-min Rain = 0
KSC1 080717Z 18006KT 11/03 A3006 RMK A01 T01090031  RH  059%=      5-min Rain = 0
KSC1 080718Z 17006KT 11/03 A3006 RMK A01 T01080031  RH  059%=      5-min Rain = 0
KSC1 080719Z 17006KT 11/03 A3005 RMK A01 T01080031  RH  059%=      5-min Rain = 0
KSC1 080720Z 16007KT 11/03 A3005 RMK A01 T01090031  RH  058%=      5-min Rain = 0
KSC1 080721Z 16003KT 11/03 A3005 RMK A01 T01090031  RH  058%=      5-min Rain = 0
KSC1 080722Z 18005KT 11/03 A3005 RMK A01 T01100031  RH  058%=      5-min Rain = 0
KSC1 080723Z 17006KT 11/03 A3005 RMK A01 T01100031  RH  058%=      5-min Rain = 0
KSC1 080724Z 18005KT 11/03 A3005 RMK A01 T01090031  RH  058%=      5-min Rain = 0
KSC1 080725Z 18007KT 11/03 A3005 RMK A01 T01090031  RH  058%=      5-min Rain = 0
KSC1 080726Z 19005KT 11/03 A3005 RMK A01 T01090030  RH  058%=      5-min Rain = 0
KSC1 080727Z 18005KT 11/03 A3005 RMK A01 T01100031  RH  058%=      5-min Rain = 0
KSC1 080728Z 18007KT 11/03 A3005 RMK A01 T01100031  RH  058%=      5-min Rain = 0
KSC1 080729Z 18007KT 11/03 A3005 RMK A01 T01100031  RH  058%=      5-min Rain = 0
KSC1 080730Z 18010G16KT 11/03 A3004 RMK A01 T01100031  RH  058%=      5-min Rain = 0
KSC1 080731Z 19010KT 11/03 A3004 RMK A01 T01110031  RH  058%=      5-min Rain = 0
KSC1 080732Z 19007KT 11/03 A3004 RMK A01 T01110031  RH  058%=      5-min Rain = 0
KSC1 080733Z 19006KT 11/03 A3004 RMK A01 T01110031  RH  058%=      5-min Rain = 0
KSC1 080734Z 18006KT 11/03 A3004 RMK A01 T01110031  RH  058%=      5-min Rain = 0
KSC1 080735Z 18007KT 11/03 A3004 RMK A01 T01110031  RH  058%=      5-min Rain = 0
KSC1 080736Z 19007KT 11/03 A3004 RMK A01 T01100031  RH  058%=      5-min Rain = 0
KSC1 080737Z 19006KT 11/03 A3004 RMK A01 T01100031  RH  058%=      5-min Rain = 0
KSC1 080738Z 19006KT 11/03 A3004 RMK A01 T01100031  RH  058%=      5-min Rain = 0
KSC1 080739Z 18009KT 11/03 A3004 RMK A01 T01100030  RH  058%=      5-min Rain = 0
KSC1 080740Z 19009KT 11/03 A3004 RMK A01 T01110031  RH  058%=      5-min Rain = 0
KSC1 080741Z 20007KT 11/03 A3004 RMK A01 T01110031  RH  058%=      5-min Rain = 0
KSC1 080742Z 19007KT 11/03 A3004 RMK A01 T01120031  RH  057%=      5-min Rain = 0
KSC1 080743Z 20006KT 11/03 A3004 RMK A01 T01130031  RH  057%=      5-min Rain = 0
KSC1 080744Z 19006KT 11/03 A3004 RMK A01 T01130031  RH  057%=      5-min Rain = 0
KSC1 080745Z 21005KT 11/03 A3004 RMK A01 T01130031  RH  057%=      5-min Rain = 0
KSC1 080746Z 21008G13KT 11/03 A3004 RMK A01 T01130031  RH  057%=      5-min Rain = 0
KSC1 080747Z 20011G16KT 11/03 A3004 RMK A01 T01140032  RH  057%=      5-min Rain = 0
KSC1 080748Z 19009KT 12/03 A3003 RMK A01 T01150032  RH  057%=      5-min Rain = 0
KSC1 080749Z 19008KT 12/03 A3003 RMK A01 T01150032  RH  057%=      5-min Rain = 0
KSC1 080750Z 19008KT 12/03 A3003 RMK A01 T01150032  RH  057%=      5-min Rain = 0
KSC1 080751Z 20009KT 12/03 A3003 RMK A01 T01150032  RH  056%=      5-min Rain = 0
KSC1 080752Z 19007KT 12/03 A3003 RMK A01 T01160032  RH  056%=      5-min Rain = 0
KSC1 080753Z 18009KT 12/03 A3003 RMK A01 T01160032  RH  056%=      5-min Rain = 0
KSC1 080754Z 19008KT 12/03 A3003 RMK A01 T01160032  RH  056%=      5-min Rain = 0
KSC1 080755Z 19009KT 12/03 A3003 RMK A01 T01160032  RH  056%=      5-min Rain = 0
KSC1 080756Z 19011G16KT 12/03 A3003 RMK A01 T01160032  RH  056%=      5-min Rain = 0
KSC1 080757Z 20009KT 12/03 A3003 RMK A01 T01160032  RH  056%=      5-min Rain = 0
KSC1 080758Z 19008KT 12/03 A3003 RMK A01 T01160032  RH  056%=      5-min Rain = 0
KSC1 080759Z 20011KT 12/03 A3003 RMK A01 T01160032  RH  056%=      5-min Rain = 0
KSC1 080800Z 19011G18KT 12/03 A3003 RMK A01 T01160032  RH  056%=      5-min Rain = 0
KSC1 080801Z 20011KT 12/03 A3003 RMK A01 T01160032  RH  056%=      5-min Rain = 0
KSC1 080802Z 19009KT 12/03 A3003 RMK A01 T01170032  RH  056%=      5-min Rain = 0
KSC1 080803Z 19010KT 12/03 A3003 RMK A01 T01160032  RH  056%=      5-min Rain = 0
KSC1 080804Z 19011KT 12/03 A3003 RMK A01 T01160032  RH  056%=      5-min Rain = 0
KSC1 080805Z 19013G18KT 12/03 A3003 RMK A01 T01160032  RH  056%=      5-min Rain = 0
KSC1 080806Z 19013KT 12/03 A3003 RMK A01 T01170032  RH  056%=      5-min Rain = 0
KSC1 080807Z 19010KT 12/03 A3003 RMK A01 T01170032  RH  056%=      5-min Rain = 0
KSC1 080808Z 19010KT 12/03 A3003 RMK A01 T01170032  RH  056%=      5-min Rain = 0
KSC1 080809Z 19010G18KT 12/03 A3003 RMK A01 T01160032  RH  056%=      5-min Rain = 0
KSC1 080810Z 19014KT 12/03 A3003 RMK A01 T01160032  RH  056%=      5-min Rain = 0
KSC1 080811Z 20009KT 12/03 A3003 RMK A01 T01160032  RH  056%=      5-min Rain = 0
KSC1 080812Z 19010G16KT 12/03 A3003 RMK A01 T01160032  RH  056%=      5-min Rain = 0
KSC1 080813Z 20011KT 12/03 A3003 RMK A01 T01160032  RH  056%=      5-min Rain = 0
KSC1 080814Z 19014KT 12/03 A3003 RMK A01 T01160032  RH  056%=      5-min Rain = 0
KSC1 080815Z 19012G17KT 12/03 A3003 RMK A01 T01160032  RH  056%=      5-min Rain = 0
KSC1 080816Z 19011KT 12/03 A3003 RMK A01 T01160032  RH  056%=      5-min Rain = 0
KSC1 080817Z 19013KT 12/03 A3003 RMK A01 T01160032  RH  056%=      5-min Rain = 0
KSC1 080818Z 19013KT 12/03 A3003 RMK A01 T01150032  RH  057%=      5-min Rain = 0
KSC1 080819Z 19013KT 12/03 A3003 RMK A01 T01150032  RH  057%=      5-min Rain = 0
KSC1 080820Z 19010KT 12/03 A3003 RMK A01 T01160032  RH  056%=      5-min Rain = 0
KSC1 080821Z 19012KT 12/03 A3003 RMK A01 T01160032  RH  057%=      5-min Rain = 0
KSC1 080822Z 19013G20KT 12/03 A3003 RMK A01 T01150032  RH  057%=      5-min Rain = 0
KSC1 080823Z 19013KT 12/03 A3003 RMK A01 T01150032  RH  057%=      5-min Rain = 0
KSC1 080824Z 19011G18KT 12/03 A3003 RMK A01 T01150032  RH  057%=      5-min Rain = 0
KSC1 080825Z 19013KT 12/03 A3003 RMK A01 T01160032  RH  056%=      5-min Rain = 0
KSC1 080826Z 19011G16KT 12/03 A3002 RMK A01 T01160032  RH  057%=      5-min Rain = 0
KSC1 080827Z 19013KT 12/03 A3002 RMK A01 T01160032  RH  057%=      5-min Rain = 0
KSC1 080828Z 19012G18KT 12/03 A3002 RMK A01 T01150032  RH  057%=      5-min Rain = 0
KSC1 080829Z 19013G18KT 12/03 A3002 RMK A01 T01150032  RH  057%=      5-min Rain = 0
KSC1 080830Z 19014KT 12/03 A3002 RMK A01 T01150032  RH  057%=      5-min Rain = 0
KSC1 080831Z 19014KT 12/03 A3002 RMK A01 T01160033  RH  057%=      5-min Rain = 0
KSC1 080832Z 19011KT 12/03 A3002 RMK A01 T01160033  RH  057%=      5-min Rain = 0
KSC1 080833Z 19011KT 12/03 A3002 RMK A01 T01160032  RH  057%=      5-min Rain = 0
KSC1 080834Z 19013KT 12/03 A3002 RMK A01 T01150032  RH  057%=      5-min Rain = 0
KSC1 080835Z 19008G14KT 12/03 A3002 RMK A01 T01150032  RH  057%=      5-min Rain = 0
KSC1 080836Z 19011G16KT 11/03 A3002 RMK A01 T01140032  RH  057%=      5-min Rain = 0
KSC1 080837Z 19011G16KT 11/03 A3002 RMK A01 T01140032  RH  057%=      5-min Rain = 0
KSC1 080838Z 19012KT 11/03 A3002 RMK A01 T01140032  RH  057%=      5-min Rain = 0
KSC1 080839Z 19014G19KT 11/03 A3002 RMK A01 T01140033  RH  057%=      5-min Rain = 0
KSC1 080840Z 19012G19KT 12/03 A3002 RMK A01 T01150033  RH  057%=      5-min Rain = 0
KSC1 080841Z 19011KT 12/03 A3002 RMK A01 T01150033  RH  057%=      5-min Rain = 0
KSC1 080842Z 19011G16KT 12/03 A3002 RMK A01 T01150033  RH  057%=      5-min Rain = 0
KSC1 080843Z 19009KT 11/03 A3002 RMK A01 T01140033  RH  057%=      5-min Rain = 0
KSC1 080844Z 19010G15KT 11/03 A3002 RMK A01 T01140033  RH  057%=      5-min Rain = 0
KSC1 080845Z 19013G19KT 11/03 A3002 RMK A01 T01140032  RH  057%=      5-min Rain = 0
KSC1 080846Z 19013KT 11/03 A3002 RMK A01 T01140033  RH  058%=      5-min Rain = 0
KSC1 080847Z 19014KT 11/03 A3002 RMK A01 T01140033  RH  057%=      5-min Rain = 0
KSC1 080848Z 20013KT 11/03 A3002 RMK A01 T01140033  RH  057%=      5-min Rain = 0
KSC1 080849Z 19012G17KT 11/03 A3002 RMK A01 T01140033  RH  057%=      5-min Rain = 0
KSC1 080850Z 19010G15KT 11/03 A3002 RMK A01 T01140033  RH  057%=      5-min Rain = 0
KSC1 080851Z 19012KT 11/03 A3002 RMK A01 T01140033  RH  057%=      5-min Rain = 0
KSC1 080852Z 19012KT 11/03 A3001 RMK A01 T01140033  RH  057%=      5-min Rain = 0
KSC1 080853Z 19012KT 11/03 A3001 RMK A01 T01140033  RH  058%=      5-min Rain = 0
KSC1 080854Z 20013KT 11/03 A3001 RMK A01 T01140033  RH  058%=      5-min Rain = 0
KSC1 080855Z 19011KT 11/03 A3001 RMK A01 T01140033  RH  057%=      5-min Rain = 0
KSC1 080856Z 19011G17KT 11/03 A3001 RMK A01 T01140033  RH  057%=      5-min Rain = 0
KSC1 080857Z 19013KT 11/03 A3001 RMK A01 T01140033  RH  058%=      5-min Rain = 0
KSC1 080858Z 19015KT 11/03 A3001 RMK A01 T01140033  RH  058%=      5-min Rain = 0
KSC1 080859Z 19013KT 12/03 A3001 RMK A01 T01150034  RH  057%=      5-min Rain = 0
KSC1 080900Z 19011KT 11/03 A30 RMK A01 T01140033  RH  057%=      5-min Rain = 0
KSC1 080901Z 19012KT 11/03 A30 RMK A01 T01140033  RH  058%=      5-min Rain = 0
KSC1 080902Z 19012G18KT 11/03 A30 RMK A01 T01130033  RH  058%=      5-min Rain = 0
KSC1 080903Z 19013G19KT 11/03 A30 RMK A01 T01130033  RH  058%=      5-min Rain = 0
KSC1 080904Z 19012KT 11/03 A30 RMK A01 T01130033  RH  058%=      5-min Rain = 0
KSC1 080905Z 19013KT 11/03 A30 RMK A01 T01130033  RH  058%=      5-min Rain = 0
KSC1 080906Z 20011G16KT 11/03 A30 RMK A01 T01140033  RH  058%=      5-min Rain = 0
KSC1 080907Z 19014KT 11/03 A30 RMK A01 T01130033  RH  058%=      5-min Rain = 0
KSC1 080908Z 19016KT 11/03 A30 RMK A01 T01140034  RH  058%=      5-min Rain = 0
KSC1 080909Z 19014KT 11/03 A3001 RMK A01 T01140034  RH  058%=      5-min Rain = 0
KSC1 080910Z 20011KT 11/03 A3001 RMK A01 T01140033  RH  058%=      5-min Rain = 0
KSC1 080911Z 20010KT 11/03 A3001 RMK A01 T01130033  RH  058%=      5-min Rain = 0
KSC1 080912Z 20009KT 11/03 A3001 RMK A01 T01120033  RH  058%=      5-min Rain = 0
KSC1 080913Z 20009KT 11/03 A3001 RMK A01 T01100033  RH  059%=      5-min Rain = 0
KSC1 080914Z 19009KT 11/03 A3001 RMK A01 T01090032  RH  059%=      5-min Rain = 0
KSC1 080915Z 19011KT 11/03 A30 RMK A01 T01090033  RH  059%=      5-min Rain = 0
KSC1 080916Z 19009G14KT 11/03 A30 RMK A01 T01090033  RH  059%=      5-min Rain = 0
KSC1 080917Z 19013KT 11/03 A30 RMK A01 T01090033  RH  060%=      5-min Rain = 0
KSC1 080918Z 19013KT 11/03 A30 RMK A01 T01090033  RH  060%=      5-min Rain = 0
KSC1 080919Z 19012G18KT 11/03 A30 RMK A01 T01100034  RH  059%=      5-min Rain = 0
KSC1 080920Z 19014KT 11/03 A30 RMK A01 T01100034  RH  059%=      5-min Rain = 0
KSC1 080921Z 19015KT 11/03 A30 RMK A01 T01110034  RH  059%=      5-min Rain = 0
KSC1 080922Z 19014KT 11/03 A30 RMK A01 T01120034  RH  059%=      5-min Rain = 0
KSC1 080923Z 19011G16KT 11/03 A30 RMK A01 T01120034  RH  058%=      5-min Rain = 0
KSC1 080924Z 19012G17KT 11/03 A30 RMK A01 T01120034  RH  059%=      5-min Rain = 0
KSC1 080925Z 20011KT 11/03 A30 RMK A01 T01120034  RH  059%=      5-min Rain = 0
KSC1 080926Z 19013KT 11/03 A30 RMK A01 T01120034  RH  059%=      5-min Rain = 0
KSC1 080927Z 19013KT 11/03 A30 RMK A01 T01120034  RH  059%=      5-min Rain = 0
KSC1 080928Z 20010KT 11/03 A30 RMK A01 T01120034  RH  059%=      5-min Rain = 0
KSC1 080929Z 20008KT 11/03 A30 RMK A01 T01110034  RH  059%=      5-min Rain = 0
KSC1 080930Z 19013G18KT 11/03 A30 RMK A01 T01100034  RH  059%=      5-min Rain = 0
KSC1 080931Z 19011KT 11/03 A30 RMK A01 T01110034  RH  059%=      5-min Rain = 0
KSC1 080932Z 20010KT 11/03 A30 RMK A01 T01110034  RH  059%=      5-min Rain = 0
KSC1 080933Z 19014KT 11/03 A30 RMK A01 T01110034  RH  059%=      5-min Rain = 0
KSC1 080934Z 20011KT 11/03 A30 RMK A01 T01110034  RH  059%=      5-min Rain = 0
KSC1 080935Z 19013G18KT 11/03 A30 RMK A01 T01110034  RH  059%=      5-min Rain = 0
KSC1 080936Z 19010G16KT 11/03 A30 RMK A01 T01110034  RH  059%=      5-min Rain = 0
KSC1 080937Z 19012KT 11/03 A30 RMK A01 T01100034  RH  059%=      5-min Rain = 0
KSC1 080938Z 20011KT 11/03 A30 RMK A01 T01100034  RH  060%=      5-min Rain = 0
KSC1 080939Z 20009KT 11/03 A30 RMK A01 T01100034  RH  060%=      5-min Rain = 0
KSC1 080940Z 19012KT 11/03 A30 RMK A01 T01100034  RH  060%=      5-min Rain = 0
KSC1 080941Z 20011G17KT 11/04 A30 RMK A01 T01100035  RH  060%=      5-min Rain = 0
KSC1 080942Z 20010KT 11/03 A30 RMK A01 T01100034  RH  060%=      5-min Rain = 0
KSC1 080943Z 20011G16KT 11/03 A30 RMK A01 T01100034  RH  060%=      5-min Rain = 0
KSC1 080944Z 19014KT 11/03 A30 RMK A01 T01090034  RH  060%=      5-min Rain = 0
KSC1 080945Z 20010KT 11/04 A30 RMK A01 T01100035  RH  060%=      5-min Rain = 0
KSC1 080946Z 20013KT 11/03 A30 RMK A01 T01100034  RH  060%=      5-min Rain = 0
KSC1 080947Z 20011G16KT 11/03 A30 RMK A01 T01090034  RH  060%=      5-min Rain = 0
KSC1 080948Z 21010KT 11/03 A30 RMK A01 T01090034  RH  060%=      5-min Rain = 0
KSC1 080949Z 20010KT 11/03 A30 RMK A01 T01090034  RH  060%=      5-min Rain = 0
KSC1 080950Z 21011KT 11/03 A30 RMK A01 T01080034  RH  060%=      5-min Rain = 0
KSC1 080951Z 20012KT 11/03 A30 RMK A01 T01070034  RH  061%=      5-min Rain = 0
KSC1 080952Z 20011KT 11/03 A30 RMK A01 T01070034  RH  061%=      5-min Rain = 0
KSC1 080953Z 20011KT 11/04 A30 RMK A01 T01070035  RH  061%=      5-min Rain = 0
KSC1 080954Z 20010KT 11/04 A30 RMK A01 T01070035  RH  061%=      5-min Rain = 0
KSC1 080955Z 20012G18KT 11/04 A30 RMK A01 T01070035  RH  061%=      5-min Rain = 0
KSC1 080956Z 20011G16KT 11/04 A30 RMK A01 T01060035  RH  061%=      5-min Rain = 0
KSC1 080957Z 20011KT 11/04 A30 RMK A01 T01060035  RH  061%=      5-min Rain = 0
KSC1 080958Z 20013KT 11/04 A30 RMK A01 T01060035  RH  061%=      5-min Rain = 0
KSC1 080959Z 20012KT 11/04 A30 RMK A01 T01060035  RH  061%=      5-min Rain = 0
KSC1 081000Z 21011KT 11/04 A30 RMK A01 T01070035  RH  061%=      5-min Rain = 0
KSC1 081001Z 20010KT 11/04 A30 RMK A01 T01060035  RH  061%=      5-min Rain = 0
KSC1 081002Z 20011KT 11/03 A30 RMK A01 T01050034  RH  061%=      5-min Rain = 0
KSC1 081003Z 21010G15KT 11/03 A30 RMK A01 T01050034  RH  062%=      5-min Rain = 0
KSC1 081004Z 20011KT 10/03 A30 RMK A01 T01040034  RH  062%=      5-min Rain = 0
KSC1 081005Z 20012KT 10/03 A30 RMK A01 T01040034  RH  062%=      5-min Rain = 0
KSC1 081006Z 20010KT 10/03 A30 RMK A01 T01040034  RH  062%=      5-min Rain = 0
KSC1 081007Z 20009KT 10/03 A30 RMK A01 T01040034  RH  062%=      5-min Rain = 0
KSC1 081008Z 20012KT 10/03 A30 RMK A01 T01030034  RH  062%=      5-min Rain = 0
KSC1 081009Z 20011KT 10/03 A30 RMK A01 T01040034  RH  062%=      5-min Rain = 0
KSC1 081010Z 20012KT 10/03 A30 RMK A01 T01030034  RH  062%=      5-min Rain = 0
KSC1 081011Z 20011KT 10/03 A30 RMK A01 T01030034  RH  062%=      5-min Rain = 0
KSC1 081012Z 21009KT 10/03 A30 RMK A01 T01030034  RH  062%=      5-min Rain = 0
KSC1 081013Z 21010KT 10/03 A30 RMK A01 T01020034  RH  062%=      5-min Rain = 0
KSC1 081014Z 21010KT 10/03 A30 RMK A01 T01020034  RH  063%=      5-min Rain = 0
KSC1 081015Z 21010KT 10/03 A30 RMK A01 T01020034  RH  063%=      5-min Rain = 0
KSC1 081016Z 20009KT 10/03 A30 RMK A01 T01010034  RH  063%=      5-min Rain = 0
KSC1 081017Z 21008KT 10/03 A30 RMK A01 T01010034  RH  063%=      5-min Rain = 0
KSC1 081018Z 20010KT 10/03 A30 RMK A01 T01010034  RH  063%=      5-min Rain = 0
KSC1 081019Z 21010KT 10/03 A30 RMK A01 T01000034  RH  063%=      5-min Rain = 0
KSC1 081020Z 20009KT 10/03 A30 RMK A01 T01000034  RH  063%=      5-min Rain = 0
KSC1 081021Z 20010KT 10/03 A30 RMK A01 T01000033  RH  063%=      5-min Rain = 0
KSC1 081022Z 20010KT 10/03 A30 RMK A01 T00990034  RH  064%=      5-min Rain = 0
KSC1 081023Z 20010KT 10/03 A30 RMK A01 T00990034  RH  064%=      5-min Rain = 0
KSC1 081024Z 19011KT 10/03 A30 RMK A01 T00990034  RH  064%=      5-min Rain = 0
KSC1 081025Z 20010KT 10/03 A30 RMK A01 T00990034  RH  064%=      5-min Rain = 0
KSC1 081026Z 20011KT 10/03 A30 RMK A01 T00990034  RH  064%=      5-min Rain = 0
KSC1 081027Z 20010KT 10/03 A30 RMK A01 T01000034  RH  064%=      5-min Rain = 0
KSC1 081028Z 20010KT 10/03 A30 RMK A01 T01000034  RH  064%=      5-min Rain = 0
KSC1 081029Z 20011KT 10/03 A30 RMK A01 T01000034  RH  064%=      5-min Rain = 0
KSC1 081030Z 20010KT 10/03 A30 RMK A01 T01000034  RH  063%=      5-min Rain = 0
KSC1 081031Z 20012KT 10/04 A2999 RMK A01 T01010035  RH  064%=      5-min Rain = 0
KSC1 081032Z 20012KT 10/04 A2999 RMK A01 T01010035  RH  063%=      5-min Rain = 0
KSC1 081033Z 20011KT 10/04 A2999 RMK A01 T01020035  RH  063%=      5-min Rain = 0
KSC1 081034Z 20012KT 10/04 A2999 RMK A01 T01020035  RH  063%=      5-min Rain = 0
KSC1 081035Z 20010KT 10/04 A2999 RMK A01 T01030036  RH  063%=      5-min Rain = 0
KSC1 081036Z 19009G14KT 10/04 A2999 RMK A01 T01030035  RH  063%=      5-min Rain = 0
KSC1 081037Z 20009G15KT 10/04 A2999 RMK A01 T01040036  RH  063%=      5-min Rain = 0
KSC1 081038Z 20009G14KT 10/04 A2999 RMK A01 T01030036  RH  063%=      5-min Rain = 0
KSC1 081039Z 19012G17KT 10/04 A2999 RMK A01 T01040036  RH  063%=      5-min Rain = 0
KSC1 081040Z 19009KT 11/04 A2999 RMK A01 T01050036  RH  062%=      5-min Rain = 0
KSC1 081041Z 21009KT 11/04 A2999 RMK A01 T01060036  RH  062%=      5-min Rain = 0
KSC1 081042Z 20009KT 11/04 A2999 RMK A01 T01050036  RH  062%=      5-min Rain = 0
KSC1 081043Z 21008KT 11/04 A2999 RMK A01 T01050036  RH  062%=      5-min Rain = 0
KSC1 081044Z 21008KT 10/04 A2999 RMK A01 T01040036  RH  062%=      5-min Rain = 0
KSC1 081045Z 21009KT 10/04 A2999 RMK A01 T01040036  RH  063%=      5-min Rain = 0
KSC1 081046Z 21008KT 10/04 A2999 RMK A01 T01030035  RH  063%=      5-min Rain = 0
KSC1 081047Z 21008KT 10/04 A2999 RMK A01 T01030036  RH  063%=      5-min Rain = 0
KSC1 081048Z 21009KT 10/04 A30 RMK A01 T01030036  RH  063%=      5-min Rain = 0
KSC1 081049Z 21009KT 10/04 A30 RMK A01 T01030036  RH  063%=      5-min Rain = 0
KSC1 081050Z 21009KT 10/04 A30 RMK A01 T01030035  RH  063%=      5-min Rain = 0
KSC1 081051Z 21009KT 10/04 A30 RMK A01 T01030035  RH  063%=      5-min Rain = 0
KSC1 081052Z 21008KT 10/04 A30 RMK A01 T01030036  RH  063%=      5-min Rain = 0
KSC1 081053Z 21007KT 10/04 A30 RMK A01 T01030036  RH  063%=      5-min Rain = 0
KSC1 081054Z 21008KT 10/04 A30 RMK A01 T01020036  RH  063%=      5-min Rain = 0
KSC1 081055Z 21009KT 10/04 A30 RMK A01 T01020036  RH  063%=      5-min Rain = 0
KSC1 081056Z 21009KT 10/04 A30 RMK A01 T01020036  RH  063%=      5-min Rain = 0
KSC1 081057Z 21009KT 10/04 A30 RMK A01 T01030036  RH  063%=      5-min Rain = 0
KSC1 081058Z 21010KT 10/04 A30 RMK A01 T01020036  RH  063%=      5-min Rain = 0
KSC1 081059Z 21009KT 10/04 A30 RMK A01 T01030036  RH  063%=      5-min Rain = 0
KSC1 081100Z 21007KT 10/04 A30 RMK A01 T01040037  RH  063%=      5-min Rain = 0
KSC1 081101Z 21008KT 10/04 A30 RMK A01 T01030037  RH  063%=      5-min Rain = 0
KSC1 081102Z 21008KT 10/04 A30 RMK A01 T01030037  RH  063%=      5-min Rain = 0
KSC1 081103Z 20009KT 10/04 A30 RMK A01 T01040037  RH  063%=      5-min Rain = 0
KSC1 081104Z 21008KT 10/04 A30 RMK A01 T01040037  RH  063%=      5-min Rain = 0
KSC1 081105Z 20009KT 10/04 A30 RMK A01 T01040037  RH  063%=      5-min Rain = 0
KSC1 081106Z 21010KT 10/04 A30 RMK A01 T01040037  RH  063%=      5-min Rain = 0
KSC1 081107Z 20008KT 10/04 A30 RMK A01 T01040037  RH  063%=      5-min Rain = 0
KSC1 081108Z 20008KT 10/04 A30 RMK A01 T01030036  RH  063%=      5-min Rain = 0
KSC1 081109Z 21008KT 10/04 A30 RMK A01 T01030037  RH  063%=      5-min Rain = 0
KSC1 081110Z 21008KT 10/04 A30 RMK A01 T01030037  RH  063%=      5-min Rain = 0
KSC1 081111Z 21010KT 10/04 A30 RMK A01 T01030036  RH  063%=      5-min Rain = 0
KSC1 081112Z 21008KT 10/04 A30 RMK A01 T01030036  RH  063%=      5-min Rain = 0
KSC1 081113Z 21007KT 10/04 A30 RMK A01 T01030036  RH  063%=      5-min Rain = 0
KSC1 081114Z 21008KT 10/04 A30 RMK A01 T01020036  RH  063%=      5-min Rain = 0
KSC1 081115Z 22006KT 10/04 A30 RMK A01 T01020036  RH  064%=      5-min Rain = 0
KSC1 081116Z 22007KT 10/04 A30 RMK A01 T01010036  RH  064%=      5-min Rain = 0
KSC1 081117Z 21007KT 10/04 A30 RMK A01 T01010036  RH  064%=      5-min Rain = 0
KSC1 081118Z 20008KT 10/04 A30 RMK A01 T01010036  RH  064%=      5-min Rain = 0
KSC1 081119Z 20007KT 10/04 A30 RMK A01 T01000036  RH  064%=      5-min Rain = 0
KSC1 081120Z 21008KT 10/04 A30 RMK A01 T00990035  RH  064%=      5-min Rain = 0
KSC1 081121Z 20008KT 10/04 A30 RMK A01 T00980035  RH  065%=      5-min Rain = 0
KSC1 081122Z 20007KT 10/04 A30 RMK A01 T00980036  RH  065%=      5-min Rain = 0
KSC1 081123Z 19006KT 10/04 A30 RMK A01 T00980036  RH  065%=      5-min Rain = 0
KSC1 081124Z 19007KT 10/04 A30 RMK A01 T00980036  RH  065%=      5-min Rain = 0
KSC1 081125Z 19007KT 10/04 A30 RMK A01 T00980036  RH  065%=      5-min Rain = 0
KSC1 081126Z 19008KT 10/04 A30 RMK A01 T00980036  RH  065%=      5-min Rain = 0
KSC1 081127Z 20007KT 10/04 A30 RMK A01 T00980036  RH  065%=      5-min Rain = 0
KSC1 081128Z 20007KT 10/04 A30 RMK A01 T00980036  RH  065%=      5-min Rain = 0
KSC1 081129Z 21007KT 10/04 A30 RMK A01 T00990037  RH  065%=      5-min Rain = 0
KSC1 081130Z 20005KT 10/04 A30 RMK A01 T00980036  RH  065%=      5-min Rain = 0
KSC1 081131Z 22006KT 10/04 A30 RMK A01 T00980036  RH  065%=      5-min Rain = 0
KSC1 081132Z 21005KT 10/04 A30 RMK A01 T00980036  RH  065%=      5-min Rain = 0
KSC1 081133Z 22004KT 10/04 A30 RMK A01 T00980036  RH  065%=      5-min Rain = 0
KSC1 081134Z 23004KT 10/04 A30 RMK A01 T00970036  RH  066%=      5-min Rain = 0
KSC1 081135Z 23003KT 10/04 A30 RMK A01 T00960036  RH  066%=      5-min Rain = 0
KSC1 081136Z 22003KT 10/04 A2999 RMK A01 T00960035  RH  066%=      5-min Rain = 0
KSC1 081137Z 21005KT 09/04 A2999 RMK A01 T00940035  RH  066%=      5-min Rain = 0
KSC1 081138Z 24003KT 09/04 A2999 RMK A01 T00940035  RH  067%=      5-min Rain = 0
KSC1 081139Z 20006KT 09/04 A2999 RMK A01 T00940035  RH  067%=      5-min Rain = 0
KSC1 081140Z 20006KT 10/04 A2999 RMK A01 T00950036  RH  067%=      5-min Rain = 0
KSC1 081141Z 21006KT 10/04 A2999 RMK A01 T00960037  RH  066%=      5-min Rain = 0
KSC1 081142Z 21005KT 10/04 A2999 RMK A01 T00960036  RH  066%=      5-min Rain = 0
KSC1 081143Z 22005KT 10/04 A2999 RMK A01 T00950035  RH  066%=      5-min Rain = 0
KSC1 081144Z 22006KT 09/04 A30 RMK A01 T00940035  RH  067%=      5-min Rain = 0
KSC1 081145Z 21006KT 09/04 A30 RMK A01 T00940035  RH  067%=      5-min Rain = 0
KSC1 081146Z 19005KT 09/04 A2999 RMK A01 T00940036  RH  067%=      5-min Rain = 0
KSC1 081147Z 20004KT 09/04 A2999 RMK A01 T00940036  RH  067%=      5-min Rain = 0
KSC1 081148Z 20005KT 09/04 A2999 RMK A01 T00940036  RH  067%=      5-min Rain = 0
KSC1 081149Z 19005KT 09/04 A2999 RMK A01 T00930035  RH  067%=      5-min Rain = 0
KSC1 081150Z 20005KT 09/04 A2999 RMK A01 T00930035  RH  067%=      5-min Rain = 0
KSC1 081151Z 20006KT 09/04 A2999 RMK A01 T00930036  RH  067%=      5-min Rain = 0
KSC1 081152Z 21005KT 09/04 A2999 RMK A01 T00930036  RH  067%=      5-min Rain = 0
KSC1 081153Z 19004KT 09/04 A2999 RMK A01 T00930035  RH  067%=      5-min Rain = 0
KSC1 081154Z 19005KT 09/04 A2999 RMK A01 T00930036  RH  067%=      5-min Rain = 0
KSC1 081155Z 22003KT 09/04 A30 RMK A01 T00940037  RH  067%=      5-min Rain = 0
KSC1 081156Z 19003KT 10/04 A30 RMK A01 T00950036  RH  067%=      5-min Rain = 0
KSC1 081157Z 22002KT 10/04 A30 RMK A01 T00950036  RH  067%=      5-min Rain = 0
KSC1 081158Z 21002KT 09/04 A30 RMK A01 T00940035  RH  067%=      5-min Rain = 0
KSC1 081159Z 20001KT 09/04 A30 RMK A01 T00930035  RH  067%=      5-min Rain = 0
KSC1 081200Z 19003KT 09/04 A30 RMK A01 T00920035  RH  068%=      5-min Rain = 0
KSC1 081201Z 20004KT 09/04 A30 RMK A01 T00920035  RH  068%=      5-min Rain = 0
KSC1 081202Z 22002KT 09/04 A30 RMK A01 T00930037  RH  068%=      5-min Rain = 0
KSC1 081203Z 21002KT 09/04 A30 RMK A01 T00940037  RH  067%=      5-min Rain = 0
KSC1 081204Z 21002KT 09/04 A30 RMK A01 T00940037  RH  067%=      5-min Rain = 0
KSC1 081205Z 20001KT 09/04 A30 RMK A01 T00940036  RH  067%=      5-min Rain = 0
KSC1 081206Z 22000KT 09/04 A30 RMK A01 T00940036  RH  067%=      5-min Rain = 0
KSC1 081207Z 19005KT 09/04 A30 RMK A01 T00940036  RH  067%=      5-min Rain = 0
KSC1 081208Z 19004KT 09/04 A30 RMK A01 T00940037  RH  067%=      5-min Rain = 0
KSC1 081209Z 21003KT 10/04 A30 RMK A01 T00950037  RH  067%=      5-min Rain = 0
KSC1 081210Z 20002KT 10/04 A30 RMK A01 T00960037  RH  067%=      5-min Rain = 0
KSC1 081211Z 20001KT 10/04 A30 RMK A01 T00960037  RH  067%=      5-min Rain = 0
KSC1 081212Z 18003KT 10/04 A30 RMK A01 T00960037  RH  067%=      5-min Rain = 0
KSC1 081213Z 17001KT 10/04 A30 RMK A01 T00960037  RH  067%=      5-min Rain = 0
KSC1 081214Z 28000KT 10/04 A30 RMK A01 T00960037  RH  067%=      5-min Rain = 0
KSC1 081215Z 21002KT 10/04 A30 RMK A01 T00960037  RH  067%=      5-min Rain = 0
KSC1 081216Z 20002KT 10/04 A30 RMK A01 T00960037  RH  067%=      5-min Rain = 0
KSC1 081217Z 15001KT 10/04 A30 RMK A01 T00960037  RH  067%=      5-min Rain = 0
KSC1 081218Z 20002KT 10/04 A30 RMK A01 T00960037  RH  067%=      5-min Rain = 0
KSC1 081219Z 19004KT 10/04 A30 RMK A01 T00950037  RH  067%=      5-min Rain = 0
KSC1 081220Z 17002KT 10/04 A30 RMK A01 T00960038  RH  067%=      5-min Rain = 0
KSC1 081221Z 20003KT 10/04 A30 RMK A01 T00960037  RH  067%=      5-min Rain = 0
KSC1 081222Z 22002KT 10/04 A30 RMK A01 T00960037  RH  067%=      5-min Rain = 0
KSC1 081223Z 23002KT 10/04 A30 RMK A01 T00960037  RH  067%=      5-min Rain = 0
KSC1 081224Z 22003KT 10/04 A30 RMK A01 T00960037  RH  067%=      5-min Rain = 0
KSC1 081225Z 20003KT 10/04 A30 RMK A01 T00960037  RH  067%=      5-min Rain = 0
KSC1 081226Z 23003KT 10/04 A30 RMK A01 T00960038  RH  067%=      5-min Rain = 0
KSC1 081227Z 19003KT 10/04 A30 RMK A01 T00960037  RH  067%=      5-min Rain = 0
KSC1 081228Z 20002KT 10/04 A30 RMK A01 T00950037  RH  067%=      5-min Rain = 0
KSC1 081229Z 22003KT 09/04 A30 RMK A01 T00940037  RH  068%=      5-min Rain = 0
KSC1 081230Z 20003KT 09/04 A30 RMK A01 T00940038  RH  068%=      5-min Rain = 0
KSC1 081231Z 22002KT 10/04 A30 RMK A01 T00950038  RH  068%=      5-min Rain = 0
KSC1 081232Z 22002KT 10/04 A30 RMK A01 T00950038  RH  067%=      5-min Rain = 0
KSC1 081233Z 22001KT 10/04 A30 RMK A01 T00960038  RH  067%=      5-min Rain = 0
KSC1 081234Z 22001KT 10/04 A30 RMK A01 T00950037  RH  067%=      5-min Rain = 0
KSC1 081235Z 22000KT 09/04 A30 RMK A01 T00940037  RH  067%=      5-min Rain = 0
KSC1 081236Z 15001KT 09/04 A30 RMK A01 T00930037  RH  068%=      5-min Rain = 0
KSC1 081237Z 14001KT 09/04 A30 RMK A01 T00920036  RH  068%=      5-min Rain = 0
KSC1 081238Z 16001KT 09/04 A30 RMK A01 T00910036  RH  068%=      5-min Rain = 0
KSC1 081239Z 15002KT 09/04 A30 RMK A01 T00910037  RH  069%=      5-min Rain = 0
KSC1 081240Z 11001KT 09/04 A30 RMK A01 T00910037  RH  069%=      5-min Rain = 0
KSC1 081241Z 07001KT 09/04 A30 RMK A01 T00910037  RH  069%=      5-min Rain = 0
KSC1 081242Z 08001KT 09/04 A30 RMK A01 T00900036  RH  069%=      5-min Rain = 0
KSC1 081243Z 01001KT 09/04 A30 RMK A01 T00890036  RH  069%=      5-min Rain = 0
KSC1 081244Z 04001KT 09/04 A30 RMK A01 T00880035  RH  069%=      5-min Rain = 0
KSC1 081245Z 04000KT 09/04 A30 RMK A01 T00880035  RH  070%=      5-min Rain = 0
KSC1 081246Z 10001KT 09/04 A2999 RMK A01 T00870035  RH  070%=      5-min Rain = 0
KSC1 081247Z 11002KT 09/04 A2999 RMK A01 T00870036  RH  070%=      5-min Rain = 0
KSC1 081248Z 13002KT 09/04 A2999 RMK A01 T00870037  RH  070%=      5-min Rain = 0
KSC1 081249Z 00000KT 09/04 A2999 RMK A01 T00870037  RH  071%=      5-min Rain = 0
KSC1 081250Z 15001KT 09/04 A2999 RMK A01 T00880038  RH  071%=      5-min Rain = 0
KSC1 081251Z 10001KT 09/04 A2999 RMK A01 T00890038  RH  070%=      5-min Rain = 0
KSC1 081252Z 10001KT 09/04 A2999 RMK A01 T00890037  RH  070%=      5-min Rain = 0
KSC1 081253Z 07001KT 09/04 A2999 RMK A01 T00880035  RH  069%=      5-min Rain = 0
KSC1 081254Z 05001KT 09/04 A2999 RMK A01 T00870035  RH  070%=      5-min Rain = 0
KSC1 081255Z 05000KT 09/04 A2999 RMK A01 T00860035  RH  071%=      5-min Rain = 0
KSC1 081256Z 00000KT 09/04 A30 RMK A01 T00850035  RH  071%=      5-min Rain = 0
KSC1 081257Z 19001KT 08/04 A30 RMK A01 T00840035  RH  071%=      5-min Rain = 0
KSC1 081258Z 10000KT 08/04 A30 RMK A01 T00840035  RH  072%=      5-min Rain = 0
KSC1 081259Z 10001KT 08/04 A30 RMK A01 T00840037  RH  072%=      5-min Rain = 0
KSC1 081300Z 05002KT 09/04 A30 RMK A01 T00850037  RH  072%=      5-min Rain = 0
KSC1 081301Z 03003KT 09/04 A30 RMK A01 T00850035  RH  071%=      5-min Rain = 0
KSC1 081302Z 04003KT 08/03 A30 RMK A01 T00820033  RH  071%=      5-min Rain = 0
KSC1 081303Z 03003KT 08/04 A30 RMK A01 T00810035  RH  073%=      5-min Rain = 0
KSC1 081304Z 02003KT 08/04 A30 RMK A01 T00810035  RH  073%=      5-min Rain = 0
KSC1 081305Z 00002KT 08/04 A30 RMK A01 T00810036  RH  073%=      5-min Rain = 0
KSC1 081306Z 00003KT 08/04 A30 RMK A01 T00810035  RH  073%=      5-min Rain = 0
KSC1 081307Z 35002KT 08/04 A30 RMK A01 T00800035  RH  073%=      5-min Rain = 0
KSC1 081308Z 01002KT 08/04 A30 RMK A01 T00800036  RH  074%=      5-min Rain = 0
KSC1 081309Z 02001KT 08/04 A30 RMK A01 T00810036  RH  073%=      5-min Rain = 0
KSC1 081310Z 36002KT 08/03 A30 RMK A01 T00800034  RH  073%=      5-min Rain = 0
KSC1 081311Z 35001KT 08/03 A30 RMK A01 T00790034  RH  073%=      5-min Rain = 0
KSC1 081312Z 34002KT 08/03 A30 RMK A01 T00770034  RH  074%=      5-min Rain = 0
KSC1 081313Z 35001KT 08/04 A30 RMK A01 T00770035  RH  075%=      5-min Rain = 0
KSC1 081314Z 25000KT 08/04 A30 RMK A01 T00770036  RH  075%=      5-min Rain = 0
KSC1 081315Z 23001KT 08/04 A30 RMK A01 T00770036  RH  075%=      5-min Rain = 0
KSC1 081316Z 18001KT 08/04 A30 RMK A01 T00770036  RH  075%=      5-min Rain = 0
KSC1 081317Z 19002KT 08/04 A30 RMK A01 T00780038  RH  076%=      5-min Rain = 0
KSC1 081318Z 16001KT 08/04 A30 RMK A01 T00800039  RH  075%=      5-min Rain = 0
KSC1 081319Z 16001KT 08/04 A30 RMK A01 T00800038  RH  075%=      5-min Rain = 0
KSC1 081320Z 12001KT 08/04 A30 RMK A01 T00810038  RH  075%=      5-min Rain = 0
KSC1 081321Z 19000KT 08/04 A30 RMK A01 T00810038  RH  074%=      5-min Rain = 0
KSC1 081322Z 20000KT 08/04 A30 RMK A01 T00810036  RH  073%=      5-min Rain = 0
KSC1 081323Z 16001KT 08/04 A30 RMK A01 T00810036  RH  074%=      5-min Rain = 0
KSC1 081324Z 15001KT 08/04 A30 RMK A01 T00800037  RH  074%=      5-min Rain = 0
KSC1 081325Z 17001KT 08/04 A30 RMK A01 T00810039  RH  075%=      5-min Rain = 0
KSC1 081326Z 12001KT 08/04 A30 RMK A01 T00840041  RH  075%=      5-min Rain = 0
KSC1 081327Z 09002KT 09/04 A30 RMK A01 T00850041  RH  074%=      5-min Rain = 0
KSC1 081328Z 10003KT 09/04 A30 RMK A01 T00870040  RH  072%=      5-min Rain = 0
KSC1 081329Z 14002KT 09/04 A30 RMK A01 T00860039  RH  072%=      5-min Rain = 0
KSC1 081330Z 11002KT 09/04 A30 RMK A01 T00860039  RH  072%=      5-min Rain = 0
KSC1 081331Z 10002KT 09/04 A30 RMK A01 T00850039  RH  073%=      5-min Rain = 0
KSC1 081332Z 09002KT 09/04 A30 RMK A01 T00850039  RH  073%=      5-min Rain = 0
KSC1 081333Z 09002KT 09/04 A30 RMK A01 T00860040  RH  073%=      5-min Rain = 0
KSC1 081334Z 08002KT 09/04 A30 RMK A01 T00860040  RH  073%=      5-min Rain = 0
KSC1 081335Z 09001KT 09/04 A30 RMK A01 T00870040  RH  072%=      5-min Rain = 0
KSC1 081336Z 09000KT 09/04 A30 RMK A01 T00870040  RH  072%=      5-min Rain = 0
KSC1 081337Z 08001KT 09/04 A30 RMK A01 T00870040  RH  072%=      5-min Rain = 0
KSC1 081338Z 09001KT 09/04 A30 RMK A01 T00860038  RH  072%=      5-min Rain = 0
KSC1 081339Z 09001KT 09/04 A30 RMK A01 T00850039  RH  073%=      5-min Rain = 0
KSC1 081340Z 10001KT 09/04 A30 RMK A01 T00850040  RH  073%=      5-min Rain = 0
KSC1 081341Z 10000KT 09/04 A30 RMK A01 T00850040  RH  073%=      5-min Rain = 0
KSC1 081342Z 10000KT 09/04 A30 RMK A01 T00860040  RH  073%=      5-min Rain = 0
KSC1 081343Z 27000KT 09/04 A30 RMK A01 T00860041  RH  073%=      5-min Rain = 0
KSC1 081344Z 17002KT 09/04 A3001 RMK A01 T00880042  RH  072%=      5-min Rain = 0
KSC1 081345Z 13001KT 09/04 A3001 RMK A01 T00900044  RH  073%=      5-min Rain = 0
KSC1 081346Z 11002KT 09/05 A3001 RMK A01 T00930045  RH  072%=      5-min Rain = 0
KSC1 081347Z 12000KT 10/04 A3001 RMK A01 T00950044  RH  070%=      5-min Rain = 0
KSC1 081348Z 05001KT 10/04 A3001 RMK A01 T00950042  RH  070%=      5-min Rain = 0
KSC1 081349Z 05002KT 09/04 A3001 RMK A01 T00930041  RH  070%=      5-min Rain = 0
KSC1 081350Z 02002KT 09/04 A3001 RMK A01 T00920041  RH  071%=      5-min Rain = 0
KSC1 081351Z 03001KT 09/04 A3001 RMK A01 T00900041  RH  071%=      5-min Rain = 0
KSC1 081352Z 02002KT 09/04 A3001 RMK A01 T00900042  RH  072%=      5-min Rain = 0
KSC1 081353Z 27003KT 09/04 A3001 RMK A01 T00910043  RH  072%=      5-min Rain = 0
KSC1 081354Z 26001KT 09/05 A3001 RMK A01 T00930045  RH  072%=      5-min Rain = 0
KSC1 081355Z 05001KT 10/05 A3001 RMK A01 T00960045  RH  071%=      5-min Rain = 0
KSC1 081356Z 09002KT 10/05 A3001 RMK A01 T00970045  RH  070%=      5-min Rain = 0
KSC1 081357Z 13002KT 10/05 A30 RMK A01 T00970045  RH  070%=      5-min Rain = 0
KSC1 081358Z 12001KT 10/05 A30 RMK A01 T00970045  RH  070%=      5-min Rain = 0
KSC1 081359Z 15004KT 10/05 A3001 RMK A01 T00970046  RH  070%=      5-min Rain = 0
KSC1 081400Z 23002KT 10/05 A3001 RMK A01 T00990046  RH  070%=      5-min Rain = 0
KSC1 081401Z 32000KT 10/05 A3001 RMK A01 T01000046  RH  069%=      5-min Rain = 0
KSC1 081402Z 21001KT 10/05 A3001 RMK A01 T01010047  RH  069%=      5-min Rain = 0
KSC1 081403Z 19004KT 10/05 A3001 RMK A01 T01020047  RH  069%=      5-min Rain = 0
KSC1 081404Z 21003KT 10/05 A3001 RMK A01 T01030047  RH  068%=      5-min Rain = 0
KSC1 081405Z 19001KT 10/05 A3001 RMK A01 T01030047  RH  068%=      5-min Rain = 0
KSC1 081406Z 19003KT 10/05 A3001 RMK A01 T01040047  RH  068%=      5-min Rain = 0
KSC1 081407Z 22002KT 10/05 A30 RMK A01 T01040048  RH  068%=      5-min Rain = 0
KSC1 081408Z 21000KT 11/05 A30 RMK A01 T01050048  RH  068%=      5-min Rain = 0
KSC1 081409Z 18000KT 11/05 A30 RMK A01 T01060048  RH  067%=      5-min Rain = 0
KSC1 081410Z 00000KT 11/05 A30 RMK A01 T01070048  RH  067%=      5-min Rain = 0
KSC1 081411Z 00000KT 11/05 A30 RMK A01 T01070048  RH  067%=      5-min Rain = 0
KSC1 081412Z 16001KT 11/05 A3001 RMK A01 T01080049  RH  067%=      5-min Rain = 0
KSC1 081413Z 14002KT 11/05 A3001 RMK A01 T01090049  RH  067%=      5-min Rain = 0
KSC1 081414Z 17002KT 11/05 A3001 RMK A01 T01100049  RH  066%=      5-min Rain = 0
KSC1 081415Z 17001KT 11/05 A3001 RMK A01 T01120050  RH  066%=      5-min Rain = 0
KSC1 081416Z 16001KT 11/05 A3001 RMK A01 T01130050  RH  065%=      5-min Rain = 0
KSC1 081417Z 15001KT 11/05 A3001 RMK A01 T01140050  RH  065%=      5-min Rain = 0
KSC1 081418Z 10001KT 12/05 A3001 RMK A01 T01150051  RH  065%=      5-min Rain = 0
KSC1 081419Z 15004KT 12/05 A3001 RMK A01 T01150051  RH  064%=      5-min Rain = 0
KSC1 081420Z 15002KT 12/05 A3001 RMK A01 T01150050  RH  064%=      5-min Rain = 0
KSC1 081421Z 14001KT 12/05 A3001 RMK A01 T01150050  RH  064%=      5-min Rain = 0
KSC1 081422Z 13001KT 12/05 A30 RMK A01 T01160050  RH  064%=      5-min Rain = 0
KSC1 081423Z 24000KT 12/05 A3001 RMK A01 T01160050  RH  064%=      5-min Rain = 0
KSC1 081424Z 22000KT 12/05 A3001 RMK A01 T01160050  RH  064%=      5-min Rain = 0
KSC1 081425Z 15001KT 12/05 A3001 RMK A01 T01160049  RH  064%=      5-min Rain = 0
KSC1 081426Z 18003KT 12/05 A30 RMK A01 T01160050  RH  064%=      5-min Rain = 0
KSC1 081427Z 24001KT 12/05 A30 RMK A01 T01160050  RH  064%=      5-min Rain = 0
KSC1 081428Z 26000KT 12/05 A30 RMK A01 T01160050  RH  064%=      5-min Rain = 0
KSC1 081429Z 24002KT 12/05 A30 RMK A01 T01160050  RH  064%=      5-min Rain = 0
KSC1 081430Z 26002KT 12/05 A30 RMK A01 T01170051  RH  064%=      5-min Rain = 0
KSC1 081431Z 27001KT 12/05 A30 RMK A01 T01170050  RH  064%=      5-min Rain = 0
KSC1 081432Z 07000KT 12/05 A30 RMK A01 T01170050  RH  063%=      5-min Rain = 0
KSC1 081433Z 09000KT 12/05 A30 RMK A01 T01180051  RH  063%=      5-min Rain = 0
KSC1 081434Z 18001KT 12/05 A30 RMK A01 T01190051  RH  063%=      5-min Rain = 0
KSC1 081435Z 20004KT 12/05 A30 RMK A01 T01190051  RH  063%=      5-min Rain = 0
KSC1 081436Z 19002KT 12/05 A30 RMK A01 T01200051  RH  063%=      5-min Rain = 0
KSC1 081437Z 28002KT 12/05 A30 RMK A01 T01200051  RH  063%=      5-min Rain = 0
KSC1 081438Z 28003KT 12/05 A30 RMK A01 T01190051  RH  063%=      5-min Rain = 0
KSC1 081439Z 26001KT 12/05 A30 RMK A01 T01200051  RH  063%=      5-min Rain = 0
KSC1 081440Z 17000KT 12/05 A30 RMK A01 T01200051  RH  063%=      5-min Rain = 0
KSC1 081441Z 18001KT 12/05 A30 RMK A01 T01200051  RH  063%=      5-min Rain = 0
KSC1 081442Z 25002KT 12/05 A30 RMK A01 T01200051  RH  063%=      5-min Rain = 0
KSC1 081443Z 24002KT 12/05 A30 RMK A01 T01200051  RH  063%=      5-min Rain = 0
KSC1 081444Z 23003KT 12/05 A30 RMK A01 T01200052  RH  063%=      5-min Rain = 0
KSC1 081445Z 26003KT 12/05 A3001 RMK A01 T01200052  RH  063%=      5-min Rain = 0
KSC1 081446Z 21003KT 12/05 A30 RMK A01 T01200052  RH  063%=      5-min Rain = 0
KSC1 081447Z 23004KT 12/05 A30 RMK A01 T01200052  RH  063%=      5-min Rain = 0
KSC1 081448Z 23004KT 12/05 A30 RMK A01 T01190051  RH  063%=      5-min Rain = 0
KSC1 081449Z 23004KT 12/05 A30 RMK A01 T01190051  RH  063%=      5-min Rain = 0
KSC1 081450Z 25003KT 12/05 A30 RMK A01 T01200051  RH  063%=      5-min Rain = 0
KSC1 081451Z 25003KT 12/05 A30 RMK A01 T01200051  RH  063%=      5-min Rain = 0
KSC1 081452Z 24003KT 12/05 A30 RMK A01 T01210051  RH  063%=      5-min Rain = 0
KSC1 081453Z 20003KT 12/05 A30 RMK A01 T01210052  RH  063%=      5-min Rain = 0
KSC1 081454Z 19004KT 12/05 A30 RMK A01 T01220052  RH  062%=      5-min Rain = 0
KSC1 081455Z 19004KT 12/05 A30 RMK A01 T01230053  RH  062%=      5-min Rain = 0
KSC1 081456Z 20004KT 12/05 A30 RMK A01 T01230053  RH  062%=      5-min Rain = 0
KSC1 081457Z 19003KT 12/05 A30 RMK A01 T01240053  RH  062%=      5-min Rain = 0
KSC1 081458Z 22005KT 12/05 A2999 RMK A01 T01240053  RH  062%=      5-min Rain = 0
KSC1 081459Z 20004KT 13/05 A2999 RMK A01 T01250052  RH  061%=      5-min Rain = 0
KSC1 081500Z 20004KT 13/05 A2999 RMK A01 T01250053  RH  061%=      5-min Rain = 0
KSC1 081501Z 17003KT 13/05 A2999 RMK A01 T01250053  RH  061%=      5-min Rain = 0
KSC1 081502Z 18005KT 13/05 A2999 RMK A01 T01270054  RH  061%=      5-min Rain = 0
KSC1 081503Z 22004KT 13/05 A2999 RMK A01 T01270053  RH  061%=      5-min Rain = 0
KSC1 081504Z 18004KT 13/06 A2999 RMK A01 T01280055  RH  061%=      5-min Rain = 0
KSC1 081505Z 19006KT 13/05 A2999 RMK A01 T01280054  RH  061%=      5-min Rain = 0
KSC1 081506Z 21004KT 13/05 A2999 RMK A01 T01280054  RH  060%=      5-min Rain = 0
KSC1 081507Z 20003KT 13/05 A2999 RMK A01 T01280054  RH  060%=      5-min Rain = 0
KSC1 081508Z 21004KT 13/05 A2999 RMK A01 T01290054  RH  060%=      5-min Rain = 0
KSC1 081509Z 20004KT 13/05 A30 RMK A01 T01290053  RH  060%=      5-min Rain = 0
KSC1 081510Z 21006KT 13/05 A30 RMK A01 T01300054  RH  060%=      5-min Rain = 0
KSC1 081511Z 20006KT 13/06 A30 RMK A01 T01310055  RH  060%=      5-min Rain = 0
KSC1 081512Z 20006KT 13/06 A30 RMK A01 T01320055  RH  059%=      5-min Rain = 0
KSC1 081513Z 21003KT 13/05 A30 RMK A01 T01320054  RH  059%=      5-min Rain = 0
KSC1 081514Z 21000KT 13/06 A30 RMK A01 T01330056  RH  059%=      5-min Rain = 0
KSC1 081515Z 11001KT 14/06 A30 RMK A01 T01350057  RH  059%=      5-min Rain = 0
KSC1 081516Z 20003KT 14/06 A30 RMK A01 T01370057  RH  058%=      5-min Rain = 0
KSC1 081517Z 19003KT 14/06 A30 RMK A01 T01370055  RH  057%=      5-min Rain = 0
KSC1 081518Z 18003KT 14/06 A30 RMK A01 T01370055  RH  057%=      5-min Rain = 0
KSC1 081519Z 18004KT 14/06 A30 RMK A01 T01370055  RH  057%=      5-min Rain = 0
KSC1 081520Z 20002KT 14/05 A30 RMK A01 T01370054  RH  057%=      5-min Rain = 0
KSC1 081521Z 19002KT 14/05 A30 RMK A01 T01380054  RH  057%=      5-min Rain = 0
KSC1 081522Z 20002KT 14/06 A30 RMK A01 T01390055  RH  057%=      5-min Rain = 0
KSC1 081523Z 20006KT 14/06 A30 RMK A01 T01400055  RH  057%=      5-min Rain = 0
KSC1 081524Z 19004KT 14/06 A30 RMK A01 T01400055  RH  056%=      5-min Rain = 0
KSC1 081525Z 23003KT 14/06 A30 RMK A01 T01400056  RH  057%=      5-min Rain = 0
KSC1 081526Z 21004KT 14/06 A30 RMK A01 T01410056  RH  056%=      5-min Rain = 0
KSC1 081527Z 18002KT 14/06 A30 RMK A01 T01420056  RH  056%=      5-min Rain = 0
KSC1 081528Z 20002KT 14/06 A30 RMK A01 T01440058  RH  056%=      5-min Rain = 0
KSC1 081529Z 16001KT 15/06 A30 RMK A01 T01450057  RH  055%=      5-min Rain = 0
KSC1 081530Z 17004KT 15/06 A30 RMK A01 T01460057  RH  055%=      5-min Rain = 0
KSC1 081531Z 21004KT 15/06 A30 RMK A01 T01470057  RH  055%=      5-min Rain = 0
KSC1 081532Z 20005KT 15/06 A30 RMK A01 T01470056  RH  054%=      5-min Rain = 0
KSC1 081533Z 21007KT 15/06 A30 RMK A01 T01470055  RH  054%=      5-min Rain = 0
KSC1 081534Z 18002KT 15/06 A30 RMK A01 T01460055  RH  054%=      5-min Rain = 0
KSC1 081535Z 18003KT 15/06 A30 RMK A01 T01470056  RH  054%=      5-min Rain = 0
KSC1 081536Z 20009KT 15/06 A30 RMK A01 T01480056  RH  054%=      5-min Rain = 0
KSC1 081537Z 20007KT 15/06 A30 RMK A01 T01480055  RH  054%=      5-min Rain = 0
KSC1 081538Z 19005KT 15/06 A30 RMK A01 T01490055  RH  053%=      5-min Rain = 0
KSC1 081539Z 20003KT 15/06 A30 RMK A01 T01480055  RH  054%=      5-min Rain = 0
KSC1 081540Z 20003KT 15/06 A30 RMK A01 T01490055  RH  053%=      5-min Rain = 0
KSC1 081541Z 13002KT 15/05 A30 RMK A01 T01480054  RH  053%=      5-min Rain = 0
KSC1 081542Z 23004KT 15/06 A30 RMK A01 T01490055  RH  053%=      5-min Rain = 0
KSC1 081543Z 17003KT 15/06 A30 RMK A01 T01500055  RH  053%=      5-min Rain = 0
KSC1 081544Z 20002KT 15/06 A30 RMK A01 T01510056  RH  053%=      5-min Rain = 0
KSC1 081545Z 22003KT 15/06 A30 RMK A01 T01520057  RH  053%=      5-min Rain = 0
KSC1 081546Z 23004KT 15/06 A30 RMK A01 T01530056  RH  052%=      5-min Rain = 0
KSC1 081547Z 15003KT 15/06 A30 RMK A01 T01540057  RH  052%=      5-min Rain = 0
KSC1 081548Z 20001KT 16/06 A30 RMK A01 T01550057  RH  052%=      5-min Rain = 0
KSC1 081549Z 22005KT 16/06 A30 RMK A01 T01560057  RH  052%=      5-min Rain = 0
KSC1 081550Z 21007KT 16/06 A30 RMK A01 T01570056  RH  051%=      5-min Rain = 0
KSC1 081551Z 22005KT 16/06 A30 RMK A01 T01560056  RH  051%=      5-min Rain = 0
KSC1 081552Z 18002KT 16/06 A30 RMK A01 T01570056  RH  051%=      5-min Rain = 0
KSC1 081553Z 10001KT 16/06 A30 RMK A01 T01580058  RH  051%=      5-min Rain = 0
KSC1 081554Z 21003KT 16/06 A30 RMK A01 T01600059  RH  051%=      5-min Rain = 0
KSC1 081555Z 19003KT 16/06 A30 RMK A01 T01620058  RH  050%=      5-min Rain = 0
KSC1 081556Z 19005KT 16/06 A30 RMK A01 T01630058  RH  050%=      5-min Rain = 0
KSC1 081557Z 19004KT 16/06 A30 RMK A01 T01630057  RH  049%=      5-min Rain = 0
KSC1 081558Z 18004KT 16/06 A30 RMK A01 T01630058  RH  050%=      5-min Rain = 0
KSC1 081559Z 17001KT 16/06 A30 RMK A01 T01640057  RH  049%=      5-min Rain = 0
KSC1 081600Z 19002KT 17/06 A30 RMK A01 T01660058  RH  049%=      5-min Rain = 0
KSC1 081601Z 19003KT 17/06 A30 RMK A01 T01680059  RH  049%=      5-min Rain = 0
KSC1 081602Z 19007KT 17/06 A2999 RMK A01 T01690058  RH  048%=      5-min Rain = 0
KSC1 081603Z 19006KT 17/06 A2999 RMK A01 T01700057  RH  047%=      5-min Rain = 0
KSC1 081604Z 20005KT 17/06 A2999 RMK A01 T01690057  RH  047%=      5-min Rain = 0
KSC1 081605Z 23005KT 17/06 A2999 RMK A01 T01690057  RH  048%=      5-min Rain = 0
KSC1 081606Z 19004KT 17/06 A2999 RMK A01 T01700058  RH  047%=      5-min Rain = 0
KSC1 081607Z 19008KT 17/06 A2999 RMK A01 T01720057  RH  047%=      5-min Rain = 0
KSC1 081608Z 21008KT 17/06 A2999 RMK A01 T01730057  RH  046%=      5-min Rain = 0
KSC1 081609Z 20011KT 17/06 A2999 RMK A01 T01730056  RH  046%=      5-min Rain = 0
KSC1 081610Z 21009KT 17/05 A2999 RMK A01 T01720054  RH  046%=      5-min Rain = 0
KSC1 081611Z 20007KT 17/06 A2999 RMK A01 T01720055  RH  046%=      5-min Rain = 0
KSC1 081612Z 20007KT 17/06 A2999 RMK A01 T01730057  RH  046%=      5-min Rain = 0
KSC1 081613Z 21009KT 17/06 A2999 RMK A01 T01740056  RH  046%=      5-min Rain = 0
KSC1 081614Z 22010KT 18/06 A2999 RMK A01 T01750056  RH  045%=      5-min Rain = 0
KSC1 081615Z 22009KT 18/06 A2999 RMK A01 T01750055  RH  045%=      5-min Rain = 0
KSC1 081616Z 21010KT 17/06 A2999 RMK A01 T01740056  RH  046%=      5-min Rain = 0
KSC1 081617Z 20009KT 18/06 A2999 RMK A01 T01760057  RH  045%=      5-min Rain = 0
KSC1 081618Z 21010KT 18/06 A2999 RMK A01 T01780056  RH  045%=      5-min Rain = 0
KSC1 081619Z 21008KT 18/06 A2999 RMK A01 T01780056  RH  045%=      5-min Rain = 0
KSC1 081620Z 20009G14KT 18/06 A2999 RMK A01 T01780056  RH  045%=      5-min Rain = 0
KSC1 081621Z 21011KT 18/06 A2999 RMK A01 T01790056  RH  044%=      5-min Rain = 0
KSC1 081622Z 20011KT 18/06 A2999 RMK A01 T01800055  RH  044%=      5-min Rain = 0
KSC1 081623Z 21010KT 18/06 A2999 RMK A01 T01800055  RH  044%=      5-min Rain = 0
KSC1 081624Z 21007KT 18/06 A2999 RMK A01 T01800056  RH  044%=      5-min Rain = 0
KSC1 081625Z 20007KT 18/06 A2999 RMK A01 T01810057  RH  044%=      5-min Rain = 0
KSC1 081626Z 20007KT 18/06 A2999 RMK A01 T01830057  RH  044%=      5-min Rain = 0
KSC1 081627Z 19007KT 18/06 A2999 RMK A01 T01830057  RH  044%=      5-min Rain = 0
KSC1 081628Z 21005KT 18/06 A2999 RMK A01 T01840057  RH  043%=      5-min Rain = 0
KSC1 081629Z 20006KT 19/06 A2999 RMK A01 T01850058  RH  043%=      5-min Rain = 0
KSC1 081630Z 20008KT 19/06 A2999 RMK A01 T01860057  RH  043%=      5-min Rain = 0
KSC1 081631Z 19008KT 19/06 A2999 RMK A01 T01860056  RH  043%=      5-min Rain = 0
KSC1 081632Z 20007KT 18/06 A2999 RMK A01 T01840055  RH  043%=      5-min Rain = 0
KSC1 081633Z 21007KT 18/06 A2999 RMK A01 T01840057  RH  043%=      5-min Rain = 0
KSC1 081634Z 21004KT 19/06 A2999 RMK A01 T01860057  RH  043%=      5-min Rain = 0
KSC1 081635Z 21004KT 19/06 A2999 RMK A01 T01870057  RH  042%=      5-min Rain = 0
KSC1 081636Z 22004KT 19/06 A2999 RMK A01 T01880058  RH  043%=      5-min Rain = 0
KSC1 081637Z 22005KT 19/06 A2999 RMK A01 T01890057  RH  042%=      5-min Rain = 0
KSC1 081638Z 22008KT 19/06 A2999 RMK A01 T01900057  RH  042%=      5-min Rain = 0
KSC1 081639Z 21007KT 19/06 A2999 RMK A01 T01900056  RH  042%=      5-min Rain = 0
KSC1 081640Z 20007KT 19/06 A2999 RMK A01 T01900056  RH  042%=      5-min Rain = 0
KSC1 081641Z 22009KT 19/06 A2999 RMK A01 T01900056  RH  041%=      5-min Rain = 0
KSC1 081642Z 22008KT 19/06 A2999 RMK A01 T01900055  RH  041%=      5-min Rain = 0
KSC1 081643Z 21009KT 19/05 A2999 RMK A01 T01900054  RH  041%=      5-min Rain = 0
KSC1 081644Z 21007KT 19/06 A2999 RMK A01 T01920055  RH  041%=      5-min Rain = 0
KSC1 081645Z 21006KT 19/06 A2999 RMK A01 T01930056  RH  041%=      5-min Rain = 0
KSC1 081646Z 21008KT 20/06 A2999 RMK A01 T01950056  RH  040%=      5-min Rain = 0
KSC1 081647Z 22008KT 20/06 A2999 RMK A01 T01960055  RH  039%=      5-min Rain = 0
KSC1 081648Z 22008KT 20/05 A2998 RMK A01 T01970054  RH  039%=      5-min Rain = 0
KSC1 081649Z 22008KT 20/06 A2998 RMK A01 T01960055  RH  039%=      5-min Rain = 0
KSC1 081650Z 21007KT 20/05 A2998 RMK A01 T01960053  RH  039%=      5-min Rain = 0
KSC1 081651Z 22009KT 20/05 A2998 RMK A01 T01960054  RH  039%=      5-min Rain = 0
KSC1 081652Z 22008KT 20/06 A2998 RMK A01 T01960055  RH  039%=      5-min Rain = 0
KSC1 081653Z 22008KT 20/05 A2998 RMK A01 T01970054  RH  039%=      5-min Rain = 0
KSC1 081654Z 22008KT 20/05 A2998 RMK A01 T01980054  RH  039%=      5-min Rain = 0
KSC1 081655Z 20007KT 20/06 A2998 RMK A01 T01990055  RH  039%=      5-min Rain = 0
KSC1 081656Z 22007KT 20/06 A2998 RMK A01 T02010056  RH  039%=      5-min Rain = 0
KSC1 081657Z 20007KT 20/06 A2998 RMK A01 T02020055  RH  038%=      5-min Rain = 0
KSC1 081658Z 20006KT 20/06 A2998 RMK A01 T02030056  RH  038%=      5-min Rain = 0
KSC1 081659Z 21006KT 21/06 A2998 RMK A01 T02050056  RH  038%=      5-min Rain = 0
KSC1 081700Z 21007KT 21/06 A2998 RMK A01 T02050055  RH  038%=      5-min Rain = 0
KSC1 081701Z 21008KT 21/06 A2998 RMK A01 T02060056  RH  037%=      5-min Rain = 0
KSC1 081702Z 22006KT 21/06 A2998 RMK A01 T02070055  RH  037%=      5-min Rain = 0
KSC1 081703Z 23008KT 21/06 A2998 RMK A01 T02090056  RH  037%=      5-min Rain = 0
KSC1 081704Z 21007KT 21/05 A2998 RMK A01 T02090054  RH  036%=      5-min Rain = 0
KSC1 081705Z 23009G14KT 21/05 A2998 RMK A01 T02110054  RH  036%=      5-min Rain = 0
KSC1 081706Z 23008KT 21/05 A2998 RMK A01 T02120052  RH  035%=      5-min Rain = 0
KSC1 081707Z 23014KT 21/05 A2998 RMK A01 T02120051  RH  035%=      5-min Rain = 0
KSC1 081708Z 24010KT 21/05 A2998 RMK A01 T02110051  RH  035%=      5-min Rain = 0
KSC1 081709Z 23011KT 21/05 A2998 RMK A01 T02100051  RH  035%=      5-min Rain = 0
KSC1 081710Z 22009KT 21/05 A2997 RMK A01 T02100050  RH  035%=      5-min Rain = 0
KSC1 081711Z 21008KT 21/05 A2997 RMK A01 T02120052  RH  035%=      5-min Rain = 0
KSC1 081712Z 20006KT 21/05 A2997 RMK A01 T02140054  RH  035%=      5-min Rain = 0
KSC1 081713Z 22005KT 22/05 A2997 RMK A01 T02160054  RH  035%=      5-min Rain = 0
KSC1 081714Z 22010KT 22/05 A2997 RMK A01 T02170052  RH  034%=      5-min Rain = 0
KSC1 081715Z 22007G12KT 22/05 A2997 RMK A01 T02170051  RH  034%=      5-min Rain = 0
KSC1 081716Z 20010KT 22/05 A2997 RMK A01 T02170052  RH  034%=      5-min Rain = 0
KSC1 081717Z 19009KT 22/05 A2997 RMK A01 T02170051  RH  034%=      5-min Rain = 0
KSC1 081718Z 20010KT 22/05 A2997 RMK A01 T02160051  RH  034%=      5-min Rain = 0
KSC1 081719Z 21009KT 22/05 A2997 RMK A01 T02160051  RH  034%=      5-min Rain = 0
KSC1 081720Z 22012KT 22/05 A2997 RMK A01 T02170050  RH  034%=      5-min Rain = 0
KSC1 081721Z 22009KT 22/05 A2997 RMK A01 T02170051  RH  034%=      5-min Rain = 0
KSC1 081722Z 21009KT 22/05 A2997 RMK A01 T02190051  RH  033%=      5-min Rain = 0
KSC1 081723Z 21007KT 22/05 A2997 RMK A01 T02200052  RH  033%=      5-min Rain = 0
KSC1 081724Z 20011G16KT 22/05 A2997 RMK A01 T02220052  RH  033%=      5-min Rain = 0
KSC1 081725Z 21011KT 22/05 A2996 RMK A01 T02220051  RH  033%=      5-min Rain = 0
KSC1 081726Z 20010KT 22/05 A2996 RMK A01 T02220051  RH  033%=      5-min Rain = 0
KSC1 081727Z 22009G14KT 22/05 A2996 RMK A01 T02220050  RH  033%=      5-min Rain = 0
KSC1 081728Z 22010KT 22/05 A2996 RMK A01 T02230051  RH  033%=      5-min Rain = 0
KSC1 081729Z 21010KT 22/05 A2996 RMK A01 T02220050  RH  033%=      5-min Rain = 0
KSC1 081730Z 21013G18KT 22/05 A2996 RMK A01 T02220050  RH  033%=      5-min Rain = 0
KSC1 081731Z 20010KT 22/05 A2996 RMK A01 T02200049  RH  033%=      5-min Rain = 0
KSC1 081732Z 21010KT 22/05 A2996 RMK A01 T02190050  RH  033%=      5-min Rain = 0
KSC1 081733Z 22008G13KT 22/05 A2996 RMK A01 T02200051  RH  033%=      5-min Rain = 0
KSC1 081734Z 22010KT 22/05 A2996 RMK A01 T02200051  RH  033%=      5-min Rain = 0
KSC1 081735Z 22006KT 22/05 A2996 RMK A01 T02180050  RH  033%=      5-min Rain = 0
KSC1 081736Z 22007KT 22/05 A2996 RMK A01 T02180052  RH  034%=      5-min Rain = 0
KSC1 081737Z 22011KT 22/05 A2996 RMK A01 T02190052  RH  034%=      5-min Rain = 0
KSC1 081738Z 20010KT 22/05 A2996 RMK A01 T02190051  RH  033%=      5-min Rain = 0
KSC1 081739Z 21010KT 22/05 A2996 RMK A01 T02190051  RH  033%=      5-min Rain = 0
KSC1 081740Z 21011KT 22/05 A2996 RMK A01 T02180050  RH  033%=      5-min Rain = 0
KSC1 081741Z 22012KT 22/05 A2996 RMK A01 T02170049  RH  033%=      5-min Rain = 0
KSC1 081742Z 21010KT 22/05 A2996 RMK A01 T02160049  RH  034%=      5-min Rain = 0
KSC1 081743Z 21012KT 22/05 A2996 RMK A01 T02160050  RH  034%=      5-min Rain = 0
KSC1 081744Z 20013KT 22/05 A2996 RMK A01 T02160049  RH  034%=      5-min Rain = 0
KSC1 081745Z 21012KT 22/05 A2996 RMK A01 T02160050  RH  034%=      5-min Rain = 0
KSC1 081746Z 21011KT 22/05 A2995 RMK A01 T02170050  RH  034%=      5-min Rain = 0
KSC1 081747Z 21010KT 22/05 A2995 RMK A01 T02180051  RH  034%=      5-min Rain = 0
KSC1 081748Z 21010KT 22/05 A2995 RMK A01 T02200052  RH  034%=      5-min Rain = 0
KSC1 081749Z 21013KT 22/05 A2995 RMK A01 T02210052  RH  033%=      5-min Rain = 0
KSC1 081750Z 22012KT 22/05 A2995 RMK A01 T02220050  RH  033%=      5-min Rain = 0
KSC1 081751Z 21013KT 22/05 A2995 RMK A01 T02210050  RH  033%=      5-min Rain = 0
KSC1 081752Z 21009KT 22/05 A2995 RMK A01 T02220050  RH  033%=      5-min Rain = 0
KSC1 081753Z 20011KT 23/05 A2995 RMK A01 T02250052  RH  033%=      5-min Rain = 0
KSC1 081754Z 20013KT 23/05 A2995 RMK A01 T02280052  RH  032%=      5-min Rain = 0
KSC1 081755Z 21015KT 23/05 A2995 RMK A01 T02290051  RH  031%=      5-min Rain = 0
KSC1 081756Z 22013KT 23/05 A2995 RMK A01 T02270049  RH  031%=      5-min Rain = 0
KSC1 081757Z 22014KT 23/05 A2994 RMK A01 T02270049  RH  031%=      5-min Rain = 0
KSC1 081758Z 21013KT 23/05 A2994 RMK A01 T02260050  RH  032%=      5-min Rain = 0
KSC1 081759Z 21012G17KT 23/05 A2994 RMK A01 T02280050  RH  032%=      5-min Rain = 0
KSC1 081800Z 21011KT 23/05 A2994 RMK A01 T02290050  RH  031%=      5-min Rain = 0
KSC1 081801Z 22014KT 23/05 A2994 RMK A01 T02310051  RH  031%=      5-min Rain = 0
KSC1 081802Z 21013KT 23/05 A2994 RMK A01 T02330049  RH  030%=      5-min Rain = 0
KSC1 081803Z 21012G17KT 23/05 A2994 RMK A01 T02320050  RH  031%=      5-min Rain = 0
KSC1 081804Z 21015KT 23/05 A2994 RMK A01 T02320049  RH  030%=      5-min Rain = 0
KSC1 081805Z 22013KT 23/05 A2994 RMK A01 T02320049  RH  030%=      5-min Rain = 0
KSC1 081806Z 21013KT 23/05 A2994 RMK A01 T02330049  RH  030%=      5-min Rain = 0
KSC1 081807Z 22011KT 23/05 A2994 RMK A01 T02330049  RH  030%=      5-min Rain = 0
KSC1 081808Z 22010G16KT 23/05 A2994 RMK A01 T02340051  RH  031%=      5-min Rain = 0
KSC1 081809Z 22014KT 24/05 A2994 RMK A01 T02350049  RH  030%=      5-min Rain = 0
KSC1 081810Z 22010KT 23/05 A2994 RMK A01 T02340049  RH  030%=      5-min Rain = 0
KSC1 081811Z 21008G13KT 23/05 A2994 RMK A01 T02340052  RH  031%=      5-min Rain = 0
KSC1 081812Z 20013KT 24/05 A2994 RMK A01 T02370051  RH  030%=      5-min Rain = 0
KSC1 081813Z 20013KT 24/05 A2994 RMK A01 T02370050  RH  030%=      5-min Rain = 0
KSC1 081814Z 20012KT 24/05 A2994 RMK A01 T02350049  RH  030%=      5-min Rain = 0
KSC1 081815Z 20011KT 23/05 A2994 RMK A01 T02340050  RH  030%=      5-min Rain = 0
KSC1 081816Z 22009KT 24/05 A2994 RMK A01 T02360051  RH  030%=      5-min Rain = 0
KSC1 081817Z 22013KT 24/05 A2994 RMK A01 T02370050  RH  030%=      5-min Rain = 0
KSC1 081818Z 21016KT 24/05 A2994 RMK A01 T02370049  RH  030%=      5-min Rain = 0
KSC1 081819Z 21013KT 23/05 A2994 RMK A01 T02340048  RH  030%=      5-min Rain = 0
KSC1 081820Z 21010KT 23/05 A2994 RMK A01 T02340049  RH  030%=      5-min Rain = 0
KSC1 081821Z 21010KT 23/05 A2994 RMK A01 T02340050  RH  030%=      5-min Rain = 0
KSC1 081822Z 20012KT 23/05 A2994 RMK A01 T02340048  RH  030%=      5-min Rain = 0
KSC1 081823Z 20009KT 23/05 A2994 RMK A01 T02340049  RH  030%=      5-min Rain = 0
KSC1 081824Z 20010KT 23/05 A2993 RMK A01 T02340050  RH  030%=      5-min Rain = 0
KSC1 081825Z 20011KT 23/05 A2993 RMK A01 T02340049  RH  030%=      5-min Rain = 0
KSC1 081826Z 21012KT 23/05 A2993 RMK A01 T02340050  RH  030%=      5-min Rain = 0
KSC1 081827Z 21012KT 23/05 A2993 RMK A01 T02340049  RH  030%=      5-min Rain = 0
KSC1 081828Z 21012KT 23/05 A2993 RMK A01 T02320049  RH  030%=      5-min Rain = 0
KSC1 081829Z 21010KT 23/05 A2993 RMK A01 T02320049  RH  031%=      5-min Rain = 0
KSC1 081830Z 21012KT 23/05 A2993 RMK A01 T02310050  RH  031%=      5-min Rain = 0
KSC1 081831Z 21013KT 23/05 A2993 RMK A01 T02300048  RH  031%=      5-min Rain = 0
KSC1 081832Z 21009KT 23/05 A2993 RMK A01 T02300049  RH  031%=      5-min Rain = 0
KSC1 081833Z 22008KT 23/05 A2993 RMK A01 T02300049  RH  031%=      5-min Rain = 0
KSC1 081834Z 21011KT 23/05 A2993 RMK A01 T02310050  RH  031%=      5-min Rain = 0
KSC1 081835Z 21010KT 23/05 A2993 RMK A01 T02320049  RH  031%=      5-min Rain = 0
KSC1 081836Z 22011KT 23/05 A2993 RMK A01 T02320050  RH  031%=      5-min Rain = 0
KSC1 081837Z 22010KT 23/05 A2993 RMK A01 T02330050  RH  031%=      5-min Rain = 0
KSC1 081838Z 21012KT 23/05 A2993 RMK A01 T02330050  RH  030%=      5-min Rain = 0
KSC1 081839Z 21012KT 23/05 A2993 RMK A01 T02330050  RH  030%=      5-min Rain = 0
KSC1 081840Z 21011KT 23/05 A2993 RMK A01 T02320049  RH  030%=      5-min Rain = 0
KSC1 081841Z 21012KT 23/05 A2993 RMK A01 T02320049  RH  031%=      5-min Rain = 0
KSC1 081842Z 21012KT 23/05 A2992 RMK A01 T02320049  RH  030%=      5-min Rain = 0
KSC1 081843Z 21012KT 23/05 A2992 RMK A01 T02340051  RH  030%=      5-min Rain = 0
KSC1 081844Z 21011KT 24/05 A2992 RMK A01 T02360050  RH  030%=      5-min Rain = 0
KSC1 081845Z 21012KT 24/05 A2992 RMK A01 T02370050  RH  030%=      5-min Rain = 0
KSC1 081846Z 20010KT 24/05 A2992 RMK A01 T02390051  RH  030%=      5-min Rain = 0
KSC1 081847Z 21012KT 24/05 A2992 RMK A01 T02400050  RH  029%=      5-min Rain = 0
KSC1 081848Z 20011G16KT 24/05 A2992 RMK A01 T02400050  RH  029%=      5-min Rain = 0
KSC1 081849Z 21014KT 24/05 A2992 RMK A01 T02390048  RH  029%=      5-min Rain = 0
KSC1 081850Z 21012KT 24/05 A2992 RMK A01 T02380048  RH  029%=      5-min Rain = 0
KSC1 081851Z 21013KT 24/05 A2992 RMK A01 T02370048  RH  029%=      5-min Rain = 0
KSC1 081852Z 21013KT 24/05 A2992 RMK A01 T02370048  RH  029%=      5-min Rain = 0
KSC1 081853Z 21011KT 24/05 A2991 RMK A01 T02360047  RH  029%=      5-min Rain = 0
KSC1 081854Z 21010KT 24/05 A2991 RMK A01 T02370048  RH  029%=      5-min Rain = 0
KSC1 081855Z 22009KT 24/05 A2991 RMK A01 T02410051  RH  029%=      5-min Rain = 0
KSC1 081856Z 22011KT 24/05 A2991 RMK A01 T02440052  RH  029%=      5-min Rain = 0
KSC1 081857Z 23011KT 25/05 A2991 RMK A01 T02450051  RH  028%=      5-min Rain = 0
KSC1 081858Z 20012KT 25/05 A2991 RMK A01 T02460050  RH  028%=      5-min Rain = 0
KSC1 081859Z 22012G17KT 25/05 A2991 RMK A01 T02480050  RH  028%=      5-min Rain = 0
KSC1 081900Z 22013KT 25/05 A2991 RMK A01 T02490048  RH  027%=      5-min Rain = 0
KSC1 081901Z 22010KT 25/05 A2991 RMK A01 T02480049  RH  028%=      5-min Rain = 0
KSC1 081902Z 22010KT 25/05 A2991 RMK A01 T02480049  RH  028%=      5-min Rain = 0
KSC1 081903Z 23010KT 25/05 A2991 RMK A01 T02490050  RH  028%=      5-min Rain = 0
KSC1 081904Z 22009G14KT 25/05 A2991 RMK A01 T02510049  RH  027%=      5-min Rain = 0
KSC1 081905Z 21011KT 25/05 A299 RMK A01 T02510048  RH  027%=      5-min Rain = 0
KSC1 081906Z 23010G15KT 25/05 A299 RMK A01 T02500049  RH  027%=      5-min Rain = 0
KSC1 081907Z 23008KT 25/05 A299 RMK A01 T02510048  RH  027%=      5-min Rain = 0
KSC1 081908Z 22012KT 25/05 A299 RMK A01 T02530049  RH  027%=      5-min Rain = 0
KSC1 081909Z 23010KT 25/05 A299 RMK A01 T02530048  RH  027%=      5-min Rain = 0
KSC1 081910Z 23009KT 25/05 A299 RMK A01 T02530049  RH  027%=      5-min Rain = 0
KSC1 081911Z 22010KT 25/05 A299 RMK A01 T02540049  RH  027%=      5-min Rain = 0
KSC1 081912Z 22009KT 25/05 A299 RMK A01 T02540049  RH  027%=      5-min Rain = 0
KSC1 081913Z 23010KT 25/05 A299 RMK A01 T02540048  RH  026%=      5-min Rain = 0
KSC1 081914Z 23011KT 25/05 A299 RMK A01 T02540048  RH  027%=      5-min Rain = 0
KSC1 081915Z 21011KT 25/05 A299 RMK A01 T02530049  RH  027%=      5-min Rain = 0
KSC1 081916Z 20011G16KT 26/05 A2989 RMK A01 T02550049  RH  027%=      5-min Rain = 0
KSC1 081917Z 22010KT 26/05 A2989 RMK A01 T02580050  RH  026%=      5-min Rain = 0
KSC1 081918Z 22013KT 26/05 A2989 RMK A01 T02590050  RH  026%=      5-min Rain = 0
KSC1 081919Z 23018KT 26/05 A2989 RMK A01 T02590048  RH  026%=      5-min Rain = 0
KSC1 081920Z 23014G19KT 26/05 A2989 RMK A01 T02580047  RH  026%=      5-min Rain = 0
KSC1 081921Z 21015KT 26/05 A2989 RMK A01 T02570047  RH  026%=      5-min Rain = 0
KSC1 081922Z 22014G19KT 26/05 A2989 RMK A01 T02580048  RH  026%=      5-min Rain = 0
KSC1 081923Z 22013G18KT 26/05 A2989 RMK A01 T02590048  RH  026%=      5-min Rain = 0
KSC1 081924Z 23015KT 26/05 A2989 RMK A01 T02600048  RH  026%=      5-min Rain = 0
KSC1 081925Z 22009G14KT 26/05 A2989 RMK A01 T02600048  RH  026%=      5-min Rain = 0
KSC1 081926Z 23011KT 26/05 A2989 RMK A01 T02630050  RH  025%=      5-min Rain = 0
KSC1 081927Z 23013KT 27/05 A2989 RMK A01 T02650049  RH  025%=      5-min Rain = 0
KSC1 081928Z 22017G24KT 27/05 A2989 RMK A01 T02650048  RH  025%=      5-min Rain = 0
KSC1 081929Z 22019KT 26/05 A2989 RMK A01 T02620046  RH  025%=      5-min Rain = 0
KSC1 081930Z 22016KT 26/05 A2989 RMK A01 T02590045  RH  025%=      5-min Rain = 0
KSC1 081931Z 23014G20KT 26/05 A2989 RMK A01 T02570045  RH  026%=      5-min Rain = 0
KSC1 081932Z 23013G18KT 26/05 A2989 RMK A01 T02590049  RH  026%=      5-min Rain = 0
KSC1 081933Z 24015KT 26/05 A2989 RMK A01 T02600047  RH  025%=      5-min Rain = 0
KSC1 081934Z 22016G21KT 26/05 A2989 RMK A01 T02600047  RH  025%=      5-min Rain = 0
KSC1 081935Z 22012G17KT 26/05 A2989 RMK A01 T02590047  RH  026%=      5-min Rain = 0
KSC1 081936Z 24019KT 26/05 A2989 RMK A01 T02590047  RH  026%=      5-min Rain = 0
KSC1 081937Z 24014G20KT 26/05 A2989 RMK A01 T02580045  RH  025%=      5-min Rain = 0
KSC1 081938Z 23015KT 26/05 A2989 RMK A01 T02590046  RH  025%=      5-min Rain = 0
KSC1 081939Z 23016G21KT 26/05 A2989 RMK A01 T02590046  RH  025%=      5-min Rain = 0
KSC1 081940Z 23016KT 26/05 A2989 RMK A01 T02610047  RH  025%=      5-min Rain = 0
KSC1 081941Z 23014KT 26/05 A2989 RMK A01 T02620047  RH  025%=      5-min Rain = 0
KSC1 081942Z 24014G19KT 26/05 A2989 RMK A01 T02620048  RH  025%=      5-min Rain = 0
KSC1 081943Z 23015G21KT 26/05 A2988 RMK A01 T02630047  RH  025%=      5-min Rain = 0
KSC1 081944Z 24016G21KT 26/05 A2988 RMK A01 T02630047  RH  025%=      5-min Rain = 0
KSC1 081945Z 23015KT 26/05 A2988 RMK A01 T02620047  RH  025%=      5-min Rain = 0
KSC1 081946Z 23015KT 26/05 A2988 RMK A01 T02610046  RH  025%=      5-min Rain = 0
KSC1 081947Z 24013G19KT 26/05 A2988 RMK A01 T02610046  RH  025%=      5-min Rain = 0
KSC1 081948Z 24015KT 26/05 A2988 RMK A01 T02620047  RH  025%=      5-min Rain = 0
KSC1 081949Z 23016G23KT 26/05 A2987 RMK A01 T02630046  RH  025%=      5-min Rain = 0
KSC1 081950Z 24016KT 26/04 A2987 RMK A01 T02620042  RH  024%=      5-min Rain = 0
KSC1 081951Z 24014G19KT 26/04 A2987 RMK A01 T02610043  RH  025%=      5-min Rain = 0
KSC1 081952Z 24014KT 26/04 A2987 RMK A01 T02610044  RH  025%=      5-min Rain = 0
KSC1 081953Z 23018KT 26/04 A2987 RMK A01 T02610044  RH  025%=      5-min Rain = 0
KSC1 081954Z 22018G25KT 26/04 A2987 RMK A01 T02600043  RH  025%=      5-min Rain = 0
KSC1 081955Z 23017G22KT 26/04 A2987 RMK A01 T02590044  RH  025%=      5-min Rain = 0
KSC1 081956Z 22014G19KT 26/04 A2987 RMK A01 T02600044  RH  025%=      5-min Rain = 0
KSC1 081957Z 23016G22KT 26/04 A2987 RMK A01 T02610044  RH  025%=      5-min Rain = 0
KSC1 081958Z 22017KT 26/04 A2987 RMK A01 T02620042  RH  024%=      5-min Rain = 0
KSC1 081959Z 23015KT 26/04 A2987 RMK A01 T02620042  RH  024%=      5-min Rain = 0
KSC1 082000Z 23013G21KT 26/04 A2987 RMK A01 T02620044  RH  025%=      5-min Rain = 0
KSC1 082001Z 22017G22KT 26/04 A2987 RMK A01 T02620044  RH  025%=      5-min Rain = 0
KSC1 082002Z 23016G23KT 26/04 A2987 RMK A01 T02630043  RH  024%=      5-min Rain = 0
KSC1 082003Z 25014G19KT 26/04 A2986 RMK A01 T02640042  RH  024%=      5-min Rain = 0
KSC1 082004Z 25013G19KT 26/04 A2986 RMK A01 T02640043  RH  024%=      5-min Rain = 0
KSC1 082005Z 24015KT 27/05 A2986 RMK A01 T02650045  RH  024%=      5-min Rain = 0
KSC1 082006Z 24013KT 27/04 A2986 RMK A01 T02660044  RH  024%=      5-min Rain = 0
KSC1 082007Z 25014G19KT 27/05 A2986 RMK A01 T02660045  RH  024%=      5-min Rain = 0
KSC1 082008Z 24013KT 27/05 A2986 RMK A01 T02670045  RH  024%=      5-min Rain = 0
KSC1 082009Z 24015G20KT 27/05 A2986 RMK A01 T02650045  RH  024%=      5-min Rain = 0
KSC1 082010Z 24015G20KT 26/04 A2986 RMK A01 T02620042  RH  024%=      5-min Rain = 0
KSC1 082011Z 23016G21KT 26/04 A2986 RMK A01 T02600041  RH  024%=      5-min Rain = 0
KSC1 082012Z 23016KT 26/04 A2986 RMK A01 T02590042  RH  025%=      5-min Rain = 0
KSC1 082013Z 22016KT 26/04 A2987 RMK A01 T02590043  RH  025%=      5-min Rain = 0
KSC1 082014Z 23013KT 26/04 A2987 RMK A01 T02590043  RH  025%=      5-min Rain = 0
KSC1 082015Z 24013KT 26/04 A2987 RMK A01 T02600043  RH  025%=      5-min Rain = 0
KSC1 082016Z 24013KT 26/04 A2987 RMK A01 T02620044  RH  025%=      5-min Rain = 0
KSC1 082017Z 24013KT 27/05 A2987 RMK A01 T02650045  RH  024%=      5-min Rain = 0
KSC1 082018Z 24012KT 27/05 A2987 RMK A01 T02670045  RH  024%=      5-min Rain = 0
KSC1 082019Z 23014KT 27/05 A2987 RMK A01 T02680045  RH  024%=      5-min Rain = 0
KSC1 082020Z 22014G21KT 27/04 A2986 RMK A01 T02680044  RH  024%=      5-min Rain = 0
KSC1 082021Z 23015G23KT 27/04 A2986 RMK A01 T02670044  RH  024%=      5-min Rain = 0
KSC1 082022Z 23016KT 27/04 A2986 RMK A01 T02660044  RH  024%=      5-min Rain = 0
KSC1 082023Z 23017G23KT 27/04 A2986 RMK A01 T02650043  RH  024%=      5-min Rain = 0
KSC1 082024Z 23016G21KT 26/04 A2986 RMK A01 T02620043  RH  024%=      5-min Rain = 0
KSC1 082025Z 24017KT 26/04 A2986 RMK A01 T02620043  RH  024%=      5-min Rain = 0
KSC1 082026Z 25016KT 26/04 A2986 RMK A01 T02610042  RH  024%=      5-min Rain = 0
KSC1 082027Z 24018KT 26/04 A2986 RMK A01 T02600042  RH  025%=      5-min Rain = 0
KSC1 082028Z 24011G16KT 26/04 A2986 RMK A01 T02590042  RH  025%=      5-min Rain = 0
KSC1 082029Z 23012G17KT 26/04 A2986 RMK A01 T02580043  RH  025%=      5-min Rain = 0
KSC1 082030Z 22013G19KT 26/04 A2986 RMK A01 T02590044  RH  025%=      5-min Rain = 0
KSC1 082031Z 21016KT 26/04 A2986 RMK A01 T02590043  RH  025%=      5-min Rain = 0
KSC1 082032Z 23015KT 26/04 A2986 RMK A01 T02580043  RH  025%=      5-min Rain = 0
KSC1 082033Z 24015G20KT 26/04 A2986 RMK A01 T02560043  RH  025%=      5-min Rain = 0
KSC1 082034Z 24015KT 26/04 A2986 RMK A01 T02560043  RH  025%=      5-min Rain = 0
KSC1 082035Z 23013KT 26/04 A2986 RMK A01 T02550043  RH  025%=      5-min Rain = 0
KSC1 082036Z 23013G21KT 26/04 A2986 RMK A01 T02550044  RH  026%=      5-min Rain = 0
KSC1 082037Z 23017KT 26/04 A2986 RMK A01 T02550044  RH  026%=      5-min Rain = 0
KSC1 082038Z 22015KT 26/04 A2986 RMK A01 T02550044  RH  026%=      5-min Rain = 0
KSC1 082039Z 22014KT 25/04 A2986 RMK A01 T02540044  RH  026%=      5-min Rain = 0
KSC1 082040Z 23012KT 25/04 A2986 RMK A01 T02540044  RH  026%=      5-min Rain = 0
KSC1 082041Z 23013KT 25/04 A2986 RMK A01 T02540044  RH  026%=      5-min Rain = 0
KSC1 082042Z 24009KT 25/05 A2986 RMK A01 T02540045  RH  026%=      5-min Rain = 0
KSC1 082043Z 24012KT 26/05 A2986 RMK A01 T02550046  RH  026%=      5-min Rain = 0
KSC1 082044Z 25011G16KT 26/05 A2986 RMK A01 T02560046  RH  026%=      5-min Rain = 0
KSC1 082045Z 24012KT 26/05 A2986 RMK A01 T02570047  RH  026%=      5-min Rain = 0
KSC1 082046Z 23016KT 26/05 A2986 RMK A01 T02570046  RH  026%=      5-min Rain = 0
KSC1 082047Z 24014G19KT 26/05 A2986 RMK A01 T02570045  RH  025%=      5-min Rain = 0
KSC1 082048Z 23013G19KT 26/05 A2986 RMK A01 T02570045  RH  026%=      5-min Rain = 0
KSC1 082049Z 23011KT 26/05 A2986 RMK A01 T02570046  RH  026%=      5-min Rain = 0
KSC1 082050Z 23013G18KT 26/05 A2986 RMK A01 T02570045  RH  026%=      5-min Rain = 0
KSC1 082051Z 22014KT 26/05 A2986 RMK A01 T02580045  RH  025%=      5-min Rain = 0
KSC1 082052Z 23014KT 26/05 A2986 RMK A01 T02580045  RH  025%=      5-min Rain = 0
KSC1 082053Z 23014KT 26/04 A2986 RMK A01 T02570044  RH  025%=      5-min Rain = 0
KSC1 082054Z 22013KT 26/04 A2986 RMK A01 T02560044  RH  025%=      5-min Rain = 0
KSC1 082055Z 22010KT 26/04 A2986 RMK A01 T02560043  RH  025%=      5-min Rain = 0
KSC1 082056Z 23011KT 26/04 A2986 RMK A01 T02560043  RH  025%=      5-min Rain = 0
KSC1 082057Z 24012KT 26/04 A2986 RMK A01 T02570044  RH  025%=      5-min Rain = 0
KSC1 082058Z 23012KT 26/04 A2986 RMK A01 T02580042  RH  025%=      5-min Rain = 0
KSC1 082059Z 24015G20KT 26/04 A2986 RMK A01 T02580040  RH  024%=      5-min Rain = 0
KSC1 082100Z 24014G20KT 26/04 A2986 RMK A01 T02590036  RH  024%=      5-min Rain = 0
KSC1 082101Z 24012KT 26/04 A2986 RMK A01 T02590036  RH  024%=      5-min Rain = 0
KSC1 082102Z 23015KT 26/03 A2986 RMK A01 T02580034  RH  023%=      5-min Rain = 0
KSC1 082103Z 24012KT 26/03 A2986 RMK A01 T02580034  RH  023%=      5-min Rain = 0
KSC1 082104Z 24014KT 26/03 A2986 RMK A01 T02570034  RH  024%=      5-min Rain = 0
KSC1 082105Z 24011G16KT 26/03 A2986 RMK A01 T02570034  RH  024%=      5-min Rain = 0
KSC1 082106Z 25012KT 26/03 A2986 RMK A01 T02580034  RH  023%=      5-min Rain = 0
KSC1 082107Z 25011KT 26/03 A2986 RMK A01 T02590033  RH  023%=      5-min Rain = 0
KSC1 082108Z 24012G18KT 26/03 A2986 RMK A01 T02590034  RH  023%=      5-min Rain = 0
KSC1 082109Z 24013KT 26/03 A2986 RMK A01 T02590034  RH  023%=      5-min Rain = 0
KSC1 082110Z 23010KT 26/03 A2986 RMK A01 T02590034  RH  023%=      5-min Rain = 0
KSC1 082111Z 24012G17KT 26/04 A2986 RMK A01 T02610035  RH  023%=      5-min Rain = 0
KSC1 082112Z 24014KT 26/03 A2986 RMK A01 T02620034  RH  023%=      5-min Rain = 0
KSC1 082113Z 24014G19KT 26/03 A2986 RMK A01 T02620033  RH  023%=      5-min Rain = 0
KSC1 082114Z 24014G20KT 26/03 A2986 RMK A01 T02610032  RH  023%=      5-min Rain = 0
KSC1 082115Z 24015G20KT 26/03 A2986 RMK A01 T02610032  RH  023%=      5-min Rain = 0
KSC1 082116Z 24012KT 26/03 A2986 RMK A01 T02590031  RH  023%=      5-min Rain = 0
KSC1 082117Z 25013G18KT 26/03 A2986 RMK A01 T02590032  RH  023%=      5-min Rain = 0
KSC1 082118Z 23014G24KT 26/03 A2986 RMK A01 T02590032  RH  023%=      5-min Rain = 0
KSC1 082119Z 24017KT 26/03 A2986 RMK A01 T02580030  RH  023%=      5-min Rain = 0
KSC1 082120Z 24016KT 26/03 A2986 RMK A01 T02570030  RH  023%=      5-min Rain = 0
KSC1 082121Z 25015KT 26/03 A2986 RMK A01 T02560030  RH  023%=      5-min Rain = 0
KSC1 082122Z 25015KT 26/03 A2986 RMK A01 T02560031  RH  023%=      5-min Rain = 0
KSC1 082123Z 25015KT 26/03 A2986 RMK A01 T02550031  RH  023%=      5-min Rain = 0
KSC1 082124Z 25015KT 26/03 A2986 RMK A01 T02550031  RH  023%=      5-min Rain = 0
KSC1 082125Z 25015KT 25/03 A2986 RMK A01 T02540031  RH  024%=      5-min Rain = 0
KSC1 082126Z 24012KT 25/03 A2986 RMK A01 T02540031  RH  024%=      5-min Rain = 0
KSC1 082127Z 25011KT 25/03 A2986 RMK A01 T02540032  RH  024%=      5-min Rain = 0
KSC1 082128Z 24013KT 26/03 A2985 RMK A01 T02550033  RH  024%=      5-min Rain = 0
KSC1 082129Z 24011KT 26/03 A2985 RMK A01 T02550032  RH  024%=      5-min Rain = 0
KSC1 082130Z 25011G16KT 26/03 A2985 RMK A01 T02560033  RH  024%=      5-min Rain = 0
KSC1 082131Z 25012KT 26/03 A2985 RMK A01 T02560033  RH  024%=      5-min Rain = 0
KSC1 082132Z 24011KT 26/03 A2985 RMK A01 T02560034  RH  024%=      5-min Rain = 0
KSC1 082133Z 24011KT 26/04 A2985 RMK A01 T02570035  RH  024%=      5-min Rain = 0
KSC1 082134Z 23015G20KT 26/04 A2985 RMK A01 T02580036  RH  024%=      5-min Rain = 0
KSC1 082135Z 24011KT 26/04 A2985 RMK A01 T02590035  RH  024%=      5-min Rain = 0
KSC1 082136Z 24014KT 26/04 A2985 RMK A01 T02590036  RH  024%=      5-min Rain = 0
KSC1 082137Z 24014KT 26/04 A2985 RMK A01 T02580035  RH  024%=      5-min Rain = 0
KSC1 082138Z 24012KT 26/04 A2985 RMK A01 T02580035  RH  024%=      5-min Rain = 0
KSC1 082139Z 24012KT 26/04 A2984 RMK A01 T02570035  RH  024%=      5-min Rain = 0
KSC1 082140Z 23014KT 26/04 A2984 RMK A01 T02570035  RH  024%=      5-min Rain = 0
KSC1 082141Z 23012KT 26/04 A2985 RMK A01 T02580035  RH  024%=      5-min Rain = 0
KSC1 082142Z 24014G19KT 26/04 A2985 RMK A01 T02570035  RH  024%=      5-min Rain = 0
KSC1 082143Z 24014G19KT 26/04 A2985 RMK A01 T02570035  RH  024%=      5-min Rain = 0
KSC1 082144Z 25014KT 26/04 A2985 RMK A01 T02570035  RH  024%=      5-min Rain = 0
KSC1 082145Z 25013KT 26/04 A2985 RMK A01 T02570036  RH  024%=      5-min Rain = 0
KSC1 082146Z 23011G17KT 26/04 A2985 RMK A01 T02580037  RH  024%=      5-min Rain = 0
KSC1 082147Z 23012KT 26/04 A2984 RMK A01 T02580036  RH  024%=      5-min Rain = 0
KSC1 082148Z 24011G16KT 26/04 A2984 RMK A01 T02580037  RH  024%=      5-min Rain = 0
KSC1 082149Z 24012G17KT 26/04 A2984 RMK A01 T02590036  RH  024%=      5-min Rain = 0
KSC1 082150Z 25014KT 26/04 A2984 RMK A01 T02590035  RH  024%=      5-min Rain = 0
KSC1 082151Z 24011KT 26/04 A2984 RMK A01 T02580036  RH  024%=      5-min Rain = 0
KSC1 082152Z 24011KT 26/04 A2985 RMK A01 T02580036  RH  024%=      5-min Rain = 0
KSC1 082153Z 23010KT 26/04 A2985 RMK A01 T02590036  RH  024%=      5-min Rain = 0
KSC1 082154Z 24008KT 26/04 A2985 RMK A01 T02590037  RH  024%=      5-min Rain = 0
KSC1 082155Z 24007G12KT 26/04 A2985 RMK A01 T02610038  RH  024%=      5-min Rain = 0
KSC1 082156Z 24012KT 26/04 A2984 RMK A01 T02620038  RH  024%=      5-min Rain = 0
KSC1 082157Z 23013KT 26/04 A2985 RMK A01 T02630037  RH  023%=      5-min Rain = 0
KSC1 082158Z 25013KT 26/04 A2984 RMK A01 T02630037  RH  023%=      5-min Rain = 0
KSC1 082159Z 24013KT 26/04 A2985 RMK A01 T02610036  RH  023%=      5-min Rain = 0
KSC1 082200Z 24011KT 26/04 A2985 RMK A01 T02610036  RH  023%=      5-min Rain = 0
KSC1 082201Z 23011KT 26/04 A2985 RMK A01 T02610037  RH  023%=      5-min Rain = 0
KSC1 082202Z 23012KT 26/04 A2985 RMK A01 T02610036  RH  023%=      5-min Rain = 0
KSC1 082203Z 24010KT 26/04 A2984 RMK A01 T02610037  RH  024%=      5-min Rain = 0
KSC1 082204Z 24012G17KT 26/04 A2985 RMK A01 T02610038  RH  024%=      5-min Rain = 0
KSC1 082205Z 24013G19KT 26/04 A2985 RMK A01 T02610037  RH  024%=      5-min Rain = 0
KSC1 082206Z 25014KT 26/04 A2985 RMK A01 T02600037  RH  024%=      5-min Rain = 0
KSC1 082207Z 25012KT 26/04 A2985 RMK A01 T02590036  RH  024%=      5-min Rain = 0
KSC1 082208Z 25014KT 26/04 A2985 RMK A01 T02580037  RH  024%=      5-min Rain = 0
KSC1 082209Z 25012KT 26/04 A2985 RMK A01 T02580037  RH  024%=      5-min Rain = 0
KSC1 082210Z 25010KT 26/04 A2985 RMK A01 T02580037  RH  024%=      5-min Rain = 0
KSC1 082211Z 25013KT 26/04 A2985 RMK A01 T02580038  RH  024%=      5-min Rain = 0
KSC1 082212Z 25013KT 26/04 A2985 RMK A01 T02570038  RH  024%=      5-min Rain = 0
KSC1 082213Z 24013KT 26/04 A2985 RMK A01 T02570038  RH  024%=      5-min Rain = 0
KSC1 082214Z 24009KT 26/04 A2985 RMK A01 T02570038  RH  024%=      5-min Rain = 0
KSC1 082215Z 24010KT 26/04 A2985 RMK A01 T02570039  RH  024%=      5-min Rain = 0
KSC1 082216Z 24012KT 26/04 A2985 RMK A01 T02570039  RH  025%=      5-min Rain = 0
KSC1 082217Z 24009KT 26/04 A2985 RMK A01 T02560039  RH  025%=      5-min Rain = 0
KSC1 082218Z 23011KT 26/04 A2985 RMK A01 T02560039  RH  025%=      5-min Rain = 0
KSC1 082219Z 24009KT 26/04 A2985 RMK A01 T02560039  RH  025%=      5-min Rain = 0
KSC1 082220Z 23009KT 26/04 A2985 RMK A01 T02550040  RH  025%=      5-min Rain = 0
KSC1 082221Z 25010KT 26/04 A2985 RMK A01 T02550040  RH  025%=      5-min Rain = 0
KSC1 082222Z 24009KT 26/04 A2985 RMK A01 T02550040  RH  025%=      5-min Rain = 0
KSC1 082223Z 24011G17KT 26/04 A2985 RMK A01 T02550041  RH  025%=      5-min Rain = 0
KSC1 082224Z 24010KT 25/04 A2985 RMK A01 T02540040  RH  025%=      5-min Rain = 0
KSC1 082225Z 24012G17KT 25/04 A2985 RMK A01 T02540040  RH  025%=      5-min Rain = 0
KSC1 082226Z 25014KT 25/04 A2985 RMK A01 T02530040  RH  025%=      5-min Rain = 0
KSC1 082227Z 25013KT 25/04 A2985 RMK A01 T02540041  RH  025%=      5-min Rain = 0
KSC1 082228Z 24012KT 25/04 A2985 RMK A01 T02530041  RH  025%=      5-min Rain = 0
KSC1 082229Z 24010G15KT 25/04 A2985 RMK A01 T02530041  RH  025%=      5-min Rain = 0
KSC1 082230Z 24013G18KT 25/04 A2985 RMK A01 T02530042  RH  026%=      5-min Rain = 0
KSC1 082231Z 24012KT 25/04 A2985 RMK A01 T02530042  RH  026%=      5-min Rain = 0
KSC1 082232Z 24013KT 25/04 A2985 RMK A01 T02530042  RH  026%=      5-min Rain = 0
KSC1 082233Z 25015G20KT 25/04 A2985 RMK A01 T02520042  RH  026%=      5-min Rain = 0
KSC1 082234Z 25015KT 25/04 A2985 RMK A01 T02520042  RH  026%=      5-min Rain = 0
KSC1 082235Z 25012KT 25/04 A2985 RMK A01 T02520043  RH  026%=      5-min Rain = 0
KSC1 082236Z 25010KT 25/04 A2985 RMK A01 T02520043  RH  026%=      5-min Rain = 0
KSC1 082237Z 25014G19KT 25/04 A2985 RMK A01 T02510043  RH  026%=      5-min Rain = 0
KSC1 082238Z 25014KT 25/04 A2985 RMK A01 T02500043  RH  026%=      5-min Rain = 0
KSC1 082239Z 25014KT 25/04 A2985 RMK A01 T02500043  RH  026%=      5-min Rain = 0
KSC1 082240Z 25012KT 25/04 A2985 RMK A01 T02500043  RH  026%=      5-min Rain = 0
KSC1 082241Z 25011KT 25/04 A2985 RMK A01 T02500043  RH  026%=      5-min Rain = 0
KSC1 082242Z 26011KT 25/04 A2985 RMK A01 T02500043  RH  026%=      5-min Rain = 0
KSC1 082243Z 25009KT 25/04 A2985 RMK A01 T02490043  RH  026%=      5-min Rain = 0
KSC1 082244Z 25008KT 25/04 A2985 RMK A01 T02490043  RH  026%=      5-min Rain = 0
KSC1 082245Z 24010KT 25/04 A2985 RMK A01 T02480044  RH  027%=      5-min Rain = 0
KSC1 082246Z 24009KT 25/04 A2985 RMK A01 T02480043  RH  027%=      5-min Rain = 0
KSC1 082247Z 24007KT 25/04 A2985 RMK A01 T02480043  RH  027%=      5-min Rain = 0
KSC1 082248Z 23008KT 25/04 A2985 RMK A01 T02480043  RH  027%=      5-min Rain = 0
KSC1 082249Z 23010KT 25/04 A2985 RMK A01 T02480044  RH  027%=      5-min Rain = 0
KSC1 082250Z 24009KT 25/04 A2985 RMK A01 T02480044  RH  027%=      5-min Rain = 0
KSC1 082251Z 24011KT 25/04 A2985 RMK A01 T02480044  RH  027%=      5-min Rain = 0
KSC1 082252Z 25010KT 25/04 A2985 RMK A01 T02470044  RH  027%=      5-min Rain = 0
KSC1 082253Z 25011G17KT 25/04 A2984 RMK A01 T02470044  RH  027%=      5-min Rain = 0
KSC1 082254Z 25012G18KT 25/04 A2984 RMK A01 T02470044  RH  027%=      5-min Rain = 0
KSC1 082255Z 25010KT 25/04 A2984 RMK A01 T02470044  RH  027%=      5-min Rain = 0
KSC1 082256Z 25010KT 25/04 A2984 RMK A01 T02470044  RH  027%=      5-min Rain = 0
KSC1 082257Z 25010KT 25/04 A2984 RMK A01 T02480044  RH  027%=      5-min Rain = 0
KSC1 082258Z 25009KT 25/04 A2984 RMK A01 T02470044  RH  027%=      5-min Rain = 0
KSC1 082259Z 25010KT 25/04 A2984 RMK A01 T02470044  RH  027%=      5-min Rain = 0
KSC1 082300Z 25009KT 25/04 A2984 RMK A01 T02460044  RH  027%=      5-min Rain = 0
KSC1 082301Z 24010KT 25/05 A2984 RMK A01 T02460045  RH  027%=      5-min Rain = 0
KSC1 082302Z 24008KT 25/04 A2984 RMK A01 T02460044  RH  027%=      5-min Rain = 0
KSC1 082303Z 24009KT 25/05 A2984 RMK A01 T02450045  RH  027%=      5-min Rain = 0
KSC1 082304Z 24007KT 25/04 A2984 RMK A01 T02450044  RH  027%=      5-min Rain = 0
KSC1 082305Z 24008KT 25/05 A2984 RMK A01 T02450045  RH  027%=      5-min Rain = 0
KSC1 082306Z 24010KT 24/05 A2984 RMK A01 T02440045  RH  027%=      5-min Rain = 0
KSC1 082307Z 25009KT 24/05 A2984 RMK A01 T02440045  RH  027%=      5-min Rain = 0
KSC1 082308Z 24010KT 24/05 A2985 RMK A01 T02440045  RH  028%=      5-min Rain = 0
KSC1 082309Z 24009KT 24/05 A2985 RMK A01 T02440045  RH  028%=      5-min Rain = 0
KSC1 082310Z 24011KT 24/05 A2985 RMK A01 T02440045  RH  028%=      5-min Rain = 0
KSC1 082311Z 23009KT 24/05 A2985 RMK A01 T02440046  RH  028%=      5-min Rain = 0
KSC1 082312Z 24007KT 24/05 A2985 RMK A01 T02440046  RH  028%=      5-min Rain = 0
KSC1 082313Z 24008KT 24/05 A2985 RMK A01 T02430046  RH  028%=      5-min Rain = 0
KSC1 082314Z 23008KT 24/05 A2985 RMK A01 T02420046  RH  028%=      5-min Rain = 0
KSC1 082315Z 23008KT 24/05 A2985 RMK A01 T02420046  RH  028%=      5-min Rain = 0
KSC1 082316Z 23008KT 24/05 A2984 RMK A01 T02410045  RH  028%=      5-min Rain = 0
KSC1 082317Z 22009KT 24/05 A2984 RMK A01 T02410045  RH  028%=      5-min Rain = 0
KSC1 082318Z 22008KT 24/05 A2984 RMK A01 T02420045  RH  028%=      5-min Rain = 0
KSC1 082319Z 23007KT 24/05 A2984 RMK A01 T02420046  RH  028%=      5-min Rain = 0
KSC1 082320Z 23008KT 24/05 A2984 RMK A01 T02410045  RH  028%=      5-min Rain = 0
KSC1 082321Z 23010KT 24/05 A2984 RMK A01 T02400045  RH  028%=      5-min Rain = 0
KSC1 082322Z 22008KT 24/05 A2984 RMK A01 T02400045  RH  028%=      5-min Rain = 0
KSC1 082323Z 23011KT 24/05 A2984 RMK A01 T02400045  RH  028%=      5-min Rain = 0
KSC1 082324Z 22007KT 24/04 A2984 RMK A01 T02400044  RH  028%=      5-min Rain = 0
KSC1 082325Z 23010KT 24/05 A2984 RMK A01 T02410045  RH  028%=      5-min Rain = 0
KSC1 082326Z 23007KT 24/04 A2984 RMK A01 T02410044  RH  028%=      5-min Rain = 0
KSC1 082327Z 24007KT 24/04 A2984 RMK A01 T02400044  RH  028%=      5-min Rain = 0
KSC1 082328Z 24006KT 24/04 A2984 RMK A01 T02390044  RH  028%=      5-min Rain = 0
KSC1 082329Z 23006KT 24/04 A2984 RMK A01 T02390044  RH  028%=      5-min Rain = 0
KSC1 082330Z 23006KT 24/04 A2984 RMK A01 T02380044  RH  028%=      5-min Rain = 0
KSC1 082331Z 23006KT 24/04 A2984 RMK A01 T02380044  RH  028%=      5-min Rain = 0
KSC1 082332Z 23005KT 24/04 A2984 RMK A01 T02370044  RH  029%=      5-min Rain = 0
KSC1 082333Z 22005KT 24/04 A2984 RMK A01 T02350044  RH  029%=      5-min Rain = 0
KSC1 082334Z 23005KT 23/04 A2984 RMK A01 T02340044  RH  029%=      5-min Rain = 0
KSC1 082335Z 23004KT 23/04 A2984 RMK A01 T02330044  RH  029%=      5-min Rain = 0
KSC1 082336Z 23005KT 23/04 A2984 RMK A01 T02320043  RH  029%=      5-min Rain = 0
KSC1 082337Z 23005KT 23/04 A2984 RMK A01 T02300043  RH  030%=      5-min Rain = 0
KSC1 082338Z 23005KT 23/04 A2984 RMK A01 T02290043  RH  030%=      5-min Rain = 0
KSC1 082339Z 22005KT 23/04 A2984 RMK A01 T02280043  RH  030%=      5-min Rain = 0
KSC1 082340Z 22004KT 23/04 A2984 RMK A01 T02280043  RH  030%=      5-min Rain = 0
KSC1 082341Z 23005KT 23/04 A2984 RMK A01 T02270043  RH  030%=      5-min Rain = 0
KSC1 082342Z 22005KT 23/04 A2984 RMK A01 T02260043  RH  030%=      5-min Rain = 0
KSC1 082343Z 22005KT 22/04 A2984 RMK A01 T02240043  RH  031%=      5-min Rain = 0
KSC1 082344Z 22005KT 22/04 A2984 RMK A01 T02230043  RH  031%=      5-min Rain = 0
KSC1 082345Z 21004KT 22/04 A2984 RMK A01 T02220043  RH  031%=      5-min Rain = 0
KSC1 082346Z 21004KT 22/04 A2984 RMK A01 T02210043  RH  031%=      5-min Rain = 0
KSC1 082347Z 21005KT 22/04 A2984 RMK A01 T02200043  RH  032%=      5-min Rain = 0
KSC1 082348Z 21005KT 22/04 A2984 RMK A01 T02180043  RH  032%=      5-min Rain = 0
KSC1 082349Z 21006KT 22/04 A2984 RMK A01 T02160043  RH  032%=      5-min Rain = 0
KSC1 082350Z 22005KT 22/04 A2984 RMK A01 T02150044  RH  032%=      5-min Rain = 0
KSC1 082351Z 22005KT 21/04 A2984 RMK A01 T02140043  RH  033%=      5-min Rain = 0
KSC1 082352Z 22006KT 21/04 A2984 RMK A01 T02130044  RH  033%=      5-min Rain = 0
KSC1 082353Z 22005KT 21/04 A2984 RMK A01 T02120044  RH  033%=      5-min Rain = 0
KSC1 082354Z 22005KT 21/04 A2984 RMK A01 T02120044  RH  033%=      5-min Rain = 0
KSC1 082355Z 21005KT 21/04 A2984 RMK A01 T02110044  RH  033%=      5-min Rain = 0
KSC1 082356Z 22005KT 21/04 A2984 RMK A01 T02110044  RH  033%=      5-min Rain = 0
KSC1 082357Z 22004KT 21/04 A2984 RMK A01 T02100044  RH  034%=      5-min Rain = 0
KSC1 082358Z 23005KT 21/04 A2985 RMK A01 T02090044  RH  034%=      5-min Rain = 0
KSC1 082359Z 22005KT 21/04 A2985 RMK A01 T02090044  RH  034%=      5-min Rain = 0
KSC1 090000Z 23004KT 21/04 A2985 RMK A01 T02090044  RH  034%=      5-min Rain = 0
KSC1 090001Z 23005KT 21/04 A2985 RMK A01 T02090044  RH  034%=      5-min Rain = 0
KSC1 090002Z 23004KT 21/04 A2985 RMK A01 T02080044  RH  034%=      5-min Rain = 0
KSC1 090003Z 23005KT 21/04 A2985 RMK A01 T02080044  RH  034%=      5-min Rain = 0
KSC1 090004Z 23005KT 21/04 A2985 RMK A01 T02070044  RH  034%=      5-min Rain = 0
KSC1 090005Z 22005KT 21/04 A2985 RMK A01 T02070043  RH  034%=      5-min Rain = 0
KSC1 090006Z 22005KT 21/04 A2985 RMK A01 T02050043  RH  034%=      5-min Rain = 0
KSC1 090007Z 22005KT 20/04 A2985 RMK A01 T02040043  RH  035%=      5-min Rain = 0
KSC1 090008Z 22005KT 20/04 A2985 RMK A01 T02020043  RH  035%=      5-min Rain = 0
KSC1 090009Z 21005KT 20/04 A2985 RMK A01 T02020043  RH  035%=      5-min Rain = 0
KSC1 090010Z 21005KT 20/04 A2985 RMK A01 T02010043  RH  035%=      5-min Rain = 0
KSC1 090011Z 21005KT 20/04 A2985 RMK A01 T02000044  RH  036%=      5-min Rain = 0
KSC1 090012Z 22005KT 20/04 A2985 RMK A01 T02000044  RH  036%=      5-min Rain = 0
KSC1 090013Z 22006KT 20/04 A2985 RMK A01 T01990043  RH  036%=      5-min Rain = 0
KSC1 090014Z 22005KT 20/04 A2985 RMK A01 T01990044  RH  036%=      5-min Rain = 0
KSC1 090015Z 22005KT 20/04 A2985 RMK A01 T01990043  RH  036%=      5-min Rain = 0
KSC1 090016Z 22005KT 20/04 A2985 RMK A01 T01990043  RH  036%=      5-min Rain = 0
KSC1 090017Z 22005KT 20/04 A2985 RMK A01 T01990044  RH  036%=      5-min Rain = 0
KSC1 090018Z 22004KT 20/04 A2985 RMK A01 T01990044  RH  036%=      5-min Rain = 0
KSC1 090019Z 22005KT 20/04 A2985 RMK A01 T01990044  RH  036%=      5-min Rain = 0
KSC1 090020Z 22005KT 20/04 A2985 RMK A01 T01990044  RH  036%=      5-min Rain = 0
KSC1 090021Z 23005KT 20/04 A2985 RMK A01 T01990044  RH  036%=      5-min Rain = 0
KSC1 090022Z 22004KT 20/04 A2985 RMK A01 T01990044  RH  036%=      5-min Rain = 0
KSC1 090023Z 23005KT 20/04 A2985 RMK A01 T02000044  RH  036%=      5-min Rain = 0
KSC1 090024Z 22005KT 20/04 A2985 RMK A01 T02000044  RH  036%=      5-min Rain = 0
KSC1 090025Z 23005KT 20/04 A2985 RMK A01 T02000044  RH  036%=      5-min Rain = 0
KSC1 090026Z 23006KT 20/04 A2985 RMK A01 T02010044  RH  036%=      5-min Rain = 0
KSC1 090027Z 24006KT 20/05 A2985 RMK A01 T02020045  RH  036%=      5-min Rain = 0
KSC1 090028Z 24006KT 20/05 A2984 RMK A01 T02020045  RH  036%=      5-min Rain = 0
KSC1 090029Z 24007KT 20/05 A2984 RMK A01 T02030046  RH  035%=      5-min Rain = 0
KSC1 090030Z 24006KT 21/05 A2984 RMK A01 T02050047  RH  035%=      5-min Rain = 0
KSC1 090031Z 24007KT 21/05 A2984 RMK A01 T02070047  RH  035%=      5-min Rain = 0
KSC1 090032Z 24008KT 21/05 A2984 RMK A01 T02100048  RH  035%=      5-min Rain = 0
KSC1 090033Z 24008KT 21/05 A2984 RMK A01 T02120048  RH  034%=      5-min Rain = 0
KSC1 090034Z 24007KT 21/05 A2984 RMK A01 T02130048  RH  034%=      5-min Rain = 0
KSC1 090035Z 24009KT 21/05 A2985 RMK A01 T02140048  RH  034%=      5-min Rain = 0
KSC1 090036Z 24008KT 22/05 A2984 RMK A01 T02150048  RH  034%=      5-min Rain = 0
KSC1 090037Z 23008KT 22/05 A2985 RMK A01 T02170049  RH  033%=      5-min Rain = 0
KSC1 090038Z 24010KT 22/05 A2984 RMK A01 T02180049  RH  033%=      5-min Rain = 0
KSC1 090039Z 23009KT 22/05 A2984 RMK A01 T02190049  RH  033%=      5-min Rain = 0
KSC1 090040Z 22007KT 22/05 A2984 RMK A01 T02200049  RH  033%=      5-min Rain = 0
KSC1 090041Z 22006KT 22/05 A2984 RMK A01 T02200049  RH  033%=      5-min Rain = 0
KSC1 090042Z 22006KT 22/05 A2984 RMK A01 T02190049  RH  033%=      5-min Rain = 0
KSC1 090043Z 22007KT 22/05 A2984 RMK A01 T02180049  RH  033%=      5-min Rain = 0
KSC1 090044Z 21006KT 22/05 A2984 RMK A01 T02170049  RH  033%=      5-min Rain = 0
KSC1 090045Z 21006KT 22/05 A2984 RMK A01 T02150049  RH  034%=      5-min Rain = 0
KSC1 090046Z 21006KT 21/05 A2984 RMK A01 T02130049  RH  034%=      5-min Rain = 0
KSC1 090047Z 22006KT 21/05 A2984 RMK A01 T02120049  RH  034%=      5-min Rain = 0
KSC1 090048Z 21006KT 21/05 A2984 RMK A01 T02110049  RH  035%=      5-min Rain = 0
KSC1 090049Z 21006KT 21/05 A2984 RMK A01 T02110049  RH  035%=      5-min Rain = 0
KSC1 090050Z 21006KT 21/05 A2984 RMK A01 T02110049  RH  035%=      5-min Rain = 0
KSC1 090051Z 21006KT 21/05 A2984 RMK A01 T02110049  RH  035%=      5-min Rain = 0
KSC1 090052Z 22006KT 21/05 A2984 RMK A01 T02110049  RH  035%=      5-min Rain = 0
KSC1 090053Z 21006KT 21/05 A2984 RMK A01 T02110050  RH  035%=      5-min Rain = 0
KSC1 090054Z 20008KT 21/05 A2984 RMK A01 T02110049  RH  035%=      5-min Rain = 0
KSC1 090055Z 19008KT 21/05 A2984 RMK A01 T02110050  RH  035%=      5-min Rain = 0
KSC1 090056Z 19007KT 21/05 A2985 RMK A01 T02120050  RH  035%=      5-min Rain = 0
KSC1 090057Z 19008KT 21/05 A2985 RMK A01 T02120050  RH  035%=      5-min Rain = 0
KSC1 090058Z 19009KT 21/05 A2985 RMK A01 T02130050  RH  034%=      5-min Rain = 0
KSC1 090059Z 18010KT 22/05 A2985 RMK A01 T02150050  RH  034%=      5-min Rain = 0
KSC1 090100Z 19011KT 22/05 A2985 RMK A01 T02160050  RH  034%=      5-min Rain = 0
KSC1 090101Z 19012KT 22/05 A2985 RMK A01 T02180050  RH  033%=      5-min Rain = 0
KSC1 090102Z 20008KT 22/05 A2985 RMK A01 T02190050  RH  033%=      5-min Rain = 0
KSC1 090103Z 19011KT 22/05 A2985 RMK A01 T02180049  RH  033%=      5-min Rain = 0
KSC1 090104Z 19009KT 22/05 A2985 RMK A01 T02180049  RH  033%=      5-min Rain = 0
KSC1 090105Z 19009KT 22/05 A2985 RMK A01 T02170049  RH  033%=      5-min Rain = 0
KSC1 090106Z 20008KT 22/05 A2985 RMK A01 T02160049  RH  034%=      5-min Rain = 0
KSC1 090107Z 19009KT 22/05 A2985 RMK A01 T02150049  RH  034%=      5-min Rain = 0
KSC1 090108Z 19010KT 22/05 A2985 RMK A01 T02150049  RH  034%=      5-min Rain = 0
KSC1 090109Z 19009KT 21/05 A2985 RMK A01 T02140049  RH  034%=      5-min Rain = 0
KSC1 090110Z 19008KT 21/05 A2985 RMK A01 T02140049  RH  034%=      5-min Rain = 0
KSC1 090111Z 19008KT 21/05 A2985 RMK A01 T02140049  RH  034%=      5-min Rain = 0
KSC1 090112Z 19008KT 21/05 A2985 RMK A01 T02130049  RH  034%=      5-min Rain = 0
KSC1 090113Z 19007KT 21/05 A2985 RMK A01 T02120049  RH  034%=      5-min Rain = 0
KSC1 090114Z 19007KT 21/05 A2985 RMK A01 T02110048  RH  034%=      5-min Rain = 0
KSC1 090115Z 19006KT 21/05 A2985 RMK A01 T02110049  RH  035%=      5-min Rain = 0
KSC1 090116Z 19007KT 21/05 A2985 RMK A01 T02100048  RH  035%=      5-min Rain = 0
KSC1 090117Z 19008KT 21/05 A2985 RMK A01 T02090049  RH  035%=      5-min Rain = 0
KSC1 090118Z 19007KT 21/05 A2985 RMK A01 T02080049  RH  035%=      5-min Rain = 0
KSC1 090119Z 19005KT 21/05 A2985 RMK A01 T02080048  RH  035%=      5-min Rain = 0
KSC1 090120Z 20006KT 21/05 A2985 RMK A01 T02070049  RH  035%=      5-min Rain = 0
KSC1 090121Z 21006KT 21/05 A2986 RMK A01 T02060049  RH  036%=      5-min Rain = 0
KSC1 090122Z 21006KT 21/05 A2986 RMK A01 T02050049  RH  036%=      5-min Rain = 0
KSC1 090123Z 22005KT 20/05 A2986 RMK A01 T02040049  RH  036%=      5-min Rain = 0
KSC1 090124Z 23004KT 20/05 A2986 RMK A01 T02030049  RH  036%=      5-min Rain = 0
KSC1 090125Z 23005KT 20/05 A2986 RMK A01 T02010048  RH  037%=      5-min Rain = 0
KSC1 090126Z 22005KT 20/05 A2986 RMK A01 T02000048  RH  037%=      5-min Rain = 0
KSC1 090127Z 21005KT 20/05 A2986 RMK A01 T01990049  RH  037%=      5-min Rain = 0
KSC1 090128Z 21005KT 20/05 A2986 RMK A01 T01980048  RH  037%=      5-min Rain = 0
KSC1 090129Z 21006KT 20/05 A2986 RMK A01 T01970049  RH  038%=      5-min Rain = 0
KSC1 090130Z 20006KT 20/05 A2986 RMK A01 T01960049  RH  038%=      5-min Rain = 0
KSC1 090131Z 20007KT 20/05 A2986 RMK A01 T01950049  RH  038%=      5-min Rain = 0
KSC1 090132Z 20007KT 20/05 A2986 RMK A01 T01950049  RH  038%=      5-min Rain = 0
KSC1 090133Z 20007KT 19/05 A2986 RMK A01 T01940049  RH  038%=      5-min Rain = 0
KSC1 090134Z 21008KT 19/05 A2986 RMK A01 T01940049  RH  038%=      5-min Rain = 0
KSC1 090135Z 21007KT 20/05 A2986 RMK A01 T01950050  RH  038%=      5-min Rain = 0
KSC1 090136Z 21008KT 20/05 A2986 RMK A01 T01950050  RH  038%=      5-min Rain = 0
KSC1 090137Z 21007KT 20/05 A2986 RMK A01 T01950049  RH  038%=      5-min Rain = 0
KSC1 090138Z 20007KT 20/05 A2986 RMK A01 T01950049  RH  038%=      5-min Rain = 0
KSC1 090139Z 21008KT 20/05 A2986 RMK A01 T01950049  RH  038%=      5-min Rain = 0
KSC1 090140Z 22008KT 20/05 A2986 RMK A01 T01970049  RH  038%=      5-min Rain = 0
KSC1 090141Z 21008KT 20/05 A2986 RMK A01 T01990050  RH  038%=      5-min Rain = 0
KSC1 090142Z 21009KT 20/05 A2986 RMK A01 T02000050  RH  037%=      5-min Rain = 0
KSC1 090143Z 21010KT 20/05 A2986 RMK A01 T02010050  RH  037%=      5-min Rain = 0
KSC1 090144Z 22009G14KT 20/05 A2986 RMK A01 T02010049  RH  037%=      5-min Rain = 0
KSC1 090145Z 21008G13KT 20/05 A2986 RMK A01 T02020049  RH  037%=      5-min Rain = 0
KSC1 090146Z 21010KT 20/05 A2986 RMK A01 T02020049  RH  037%=      5-min Rain = 0
KSC1 090147Z 21009KT 20/05 A2986 RMK A01 T02020050  RH  037%=      5-min Rain = 0
KSC1 090148Z 21009KT 20/05 A2986 RMK A01 T02020049  RH  037%=      5-min Rain = 0
KSC1 090149Z 21008KT 20/05 A2986 RMK A01 T02010049  RH  037%=      5-min Rain = 0
KSC1 090150Z 21010KT 20/05 A2986 RMK A01 T02010049  RH  037%=      5-min Rain = 0
KSC1 090151Z 21009KT 20/05 A2986 RMK A01 T02010049  RH  037%=      5-min Rain = 0
KSC1 090152Z 21007KT 20/05 A2986 RMK A01 T02010049  RH  037%=      5-min Rain = 0
KSC1 090153Z 21008KT 20/05 A2986 RMK A01 T02010049  RH  037%=      5-min Rain = 0
KSC1 090154Z 21010KT 20/05 A2986 RMK A01 T02010049  RH  037%=      5-min Rain = 0
KSC1 090155Z 21008KT 20/05 A2986 RMK A01 T02010049  RH  037%=      5-min Rain = 0
KSC1 090156Z 21008KT 20/05 A2986 RMK A01 T02010049  RH  037%=      5-min Rain = 0
KSC1 090157Z 21008KT 20/05 A2986 RMK A01 T02020049  RH  037%=      5-min Rain = 0
KSC1 090158Z 22008KT 20/05 A2986 RMK A01 T02020049  RH  037%=      5-min Rain = 0
KSC1 090159Z 21007KT 20/05 A2987 RMK A01 T02010049  RH  037%=      5-min Rain = 0
KSC1 090200Z 21007KT 20/05 A2987 RMK A01 T02010049  RH  037%=      5-min Rain = 0
KSC1 090201Z 22006KT 20/05 A2987 RMK A01 T02000049  RH  037%=      5-min Rain = 0
KSC1 090202Z 22006KT 20/05 A2987 RMK A01 T02000048  RH  037%=      5-min Rain = 0
KSC1 090203Z 21006KT 20/05 A2987 RMK A01 T01990048  RH  037%=      5-min Rain = 0
KSC1 090204Z 21008KT 20/05 A2987 RMK A01 T01990048  RH  037%=      5-min Rain = 0
KSC1 090205Z 23005KT 20/05 A2987 RMK A01 T01980049  RH  037%=      5-min Rain = 0
KSC1 090206Z 25006KT 20/05 A2987 RMK A01 T01980048  RH  037%=      5-min Rain = 0
KSC1 090207Z 24009KT 20/05 A2987 RMK A01 T01970049  RH  038%=      5-min Rain = 0
KSC1 090208Z 21007KT 20/05 A2987 RMK A01 T01960049  RH  038%=      5-min Rain = 0
KSC1 090209Z 21008KT 20/05 A2987 RMK A01 T01960049  RH  038%=      5-min Rain = 0
KSC1 090210Z 21009KT 20/05 A2987 RMK A01 T01960049  RH  038%=      5-min Rain = 0
KSC1 090211Z 21008KT 20/05 A2987 RMK A01 T01960049  RH  038%=      5-min Rain = 0
KSC1 090212Z 20009KT 20/05 A2987 RMK A01 T01960050  RH  038%=      5-min Rain = 0
KSC1 090213Z 20008KT 20/05 A2987 RMK A01 T01960050  RH  038%=      5-min Rain = 0
KSC1 090214Z 20007KT 20/05 A2987 RMK A01 T01960049  RH  038%=      5-min Rain = 0
KSC1 090215Z 21008KT 20/05 A2987 RMK A01 T01950049  RH  038%=      5-min Rain = 0
KSC1 090216Z 21007KT 20/05 A2987 RMK A01 T01950049  RH  038%=      5-min Rain = 0
KSC1 090217Z 19009KT 20/05 A2987 RMK A01 T01960049  RH  038%=      5-min Rain = 0
KSC1 090218Z 19009KT 20/05 A2987 RMK A01 T01970049  RH  038%=      5-min Rain = 0
KSC1 090219Z 19007G12KT 20/05 A2987 RMK A01 T01970049  RH  038%=      5-min Rain = 0
KSC1 090220Z 20009KT 20/05 A2987 RMK A01 T01980050  RH  038%=      5-min Rain = 0
KSC1 090221Z 20008KT 20/05 A2987 RMK A01 T01980050  RH  038%=      5-min Rain = 0
KSC1 090222Z 20009KT 20/05 A2987 RMK A01 T01970050  RH  038%=      5-min Rain = 0
KSC1 090223Z 20008KT 20/05 A2987 RMK A01 T01970050  RH  038%=      5-min Rain = 0
KSC1 090224Z 20008KT 20/05 A2987 RMK A01 T01960049  RH  038%=      5-min Rain = 0
KSC1 090225Z 20007KT 20/05 A2987 RMK A01 T01960050  RH  038%=      5-min Rain = 0
KSC1 090226Z 20008KT 20/05 A2987 RMK A01 T01950050  RH  038%=      5-min Rain = 0
KSC1 090227Z 20009KT 19/05 A2987 RMK A01 T01940050  RH  039%=      5-min Rain = 0
KSC1 090228Z 20009KT 19/05 A2987 RMK A01 T01940050  RH  039%=      5-min Rain = 0
KSC1 090229Z 21010KT 19/05 A2987 RMK A01 T01940050  RH  039%=      5-min Rain = 0
KSC1 090230Z 21009KT 20/05 A2987 RMK A01 T01950050  RH  038%=      5-min Rain = 0
KSC1 090231Z 21008KT 20/05 A2987 RMK A01 T01960050  RH  038%=      5-min Rain = 0
KSC1 090232Z 21009KT 20/05 A2987 RMK A01 T01960050  RH  038%=      5-min Rain = 0
KSC1 090233Z 21010KT 20/05 A2987 RMK A01 T01960050  RH  038%=      5-min Rain = 0
KSC1 090234Z 21010KT 20/05 A2987 RMK A01 T01960050  RH  038%=      5-min Rain = 0
KSC1 090235Z 21008KT 20/05 A2987 RMK A01 T01970050  RH  038%=      5-min Rain = 0
KSC1 090236Z 22008KT 20/05 A2987 RMK A01 T01970050  RH  038%=      5-min Rain = 0
KSC1 090237Z 22010KT 20/05 A2987 RMK A01 T01960050  RH  038%=      5-min Rain = 0
KSC1 090238Z 21010KT 20/05 A2987 RMK A01 T01960050  RH  038%=      5-min Rain = 0
KSC1 090239Z 21009KT 20/05 A2987 RMK A01 T01960050  RH  038%=      5-min Rain = 0
KSC1 090240Z 21010KT 20/05 A2988 RMK A01 T01950050  RH  038%=      5-min Rain = 0
KSC1 090241Z 21009KT 20/05 A2988 RMK A01 T01950050  RH  039%=      5-min Rain = 0
KSC1 090242Z 21009KT 20/05 A2988 RMK A01 T01950050  RH  039%=      5-min Rain = 0
KSC1 090243Z 21008KT 20/05 A2988 RMK A01 T01950051  RH  039%=      5-min Rain = 0
KSC1 090244Z 21008KT 19/05 A2988 RMK A01 T01940051  RH  039%=      5-min Rain = 0
KSC1 090245Z 21009KT 19/05 A2987 RMK A01 T01940051  RH  039%=      5-min Rain = 0
KSC1 090246Z 21009KT 19/05 A2987 RMK A01 T01930051  RH  039%=      5-min Rain = 0
KSC1 090247Z 21007KT 19/05 A2987 RMK A01 T01930051  RH  039%=      5-min Rain = 0
KSC1 090248Z 21007KT 19/05 A2987 RMK A01 T01930051  RH  039%=      5-min Rain = 0
KSC1 090249Z 21009KT 19/05 A2987 RMK A01 T01930051  RH  039%=      5-min Rain = 0
KSC1 090250Z 22008KT 19/05 A2987 RMK A01 T01930051  RH  039%=      5-min Rain = 0
KSC1 090251Z 21008KT 19/05 A2987 RMK A01 T01930051  RH  039%=      5-min Rain = 0
KSC1 090252Z 21008KT 19/05 A2987 RMK A01 T01930052  RH  039%=      5-min Rain = 0
KSC1 090253Z 21009KT 19/05 A2987 RMK A01 T01920051  RH  040%=      5-min Rain = 0
KSC1 090254Z 21008KT 19/05 A2987 RMK A01 T01930052  RH  040%=      5-min Rain = 0
KSC1 090255Z 21009KT 19/05 A2987 RMK A01 T01920052  RH  040%=      5-min Rain = 0
KSC1 090256Z 21009KT 19/05 A2987 RMK A01 T01920052  RH  040%=      5-min Rain = 0
KSC1 090257Z 21007KT 19/05 A2987 RMK A01 T01920052  RH  040%=      5-min Rain = 0
KSC1 090258Z 20008KT 19/05 A2987 RMK A01 T01920052  RH  040%=      5-min Rain = 0
KSC1 090259Z 20010G15KT 19/05 A2987 RMK A01 T01920053  RH  040%=      5-min Rain = 0
KSC1 090300Z 20011KT 19/05 A2987 RMK A01 T01920053  RH  040%=      5-min Rain = 0
KSC1 090301Z 20009KT 19/05 A2987 RMK A01 T01930053  RH  040%=      5-min Rain = 0
KSC1 090302Z 20008KT 19/05 A2987 RMK A01 T01940053  RH  039%=      5-min Rain = 0
KSC1 090303Z 20007KT 19/05 A2987 RMK A01 T01940053  RH  040%=      5-min Rain = 0
KSC1 090304Z 21008KT 19/05 A2987 RMK A01 T01930053  RH  040%=      5-min Rain = 0
KSC1 090305Z 21008KT 19/05 A2987 RMK A01 T01920052  RH  040%=      5-min Rain = 0
KSC1 090306Z 20009KT 19/05 A2987 RMK A01 T01920053  RH  040%=      5-min Rain = 0
KSC1 090307Z 20008KT 19/05 A2987 RMK A01 T01920053  RH  040%=      5-min Rain = 0
KSC1 090308Z 20009KT 19/05 A2987 RMK A01 T01930053  RH  040%=      5-min Rain = 0
KSC1 090309Z 20009KT 19/05 A2987 RMK A01 T01920053  RH  040%=      5-min Rain = 0
KSC1 090310Z 21006KT 19/05 A2987 RMK A01 T01920053  RH  040%=      5-min Rain = 0
KSC1 090311Z 21007KT 19/05 A2987 RMK A01 T01900052  RH  040%=      5-min Rain = 0
KSC1 090312Z 21007KT 19/05 A2987 RMK A01 T01900052  RH  040%=      5-min Rain = 0
KSC1 090313Z 20008KT 19/05 A2987 RMK A01 T01900052  RH  040%=      5-min Rain = 0
KSC1 090314Z 20008KT 19/05 A2987 RMK A01 T01900053  RH  040%=      5-min Rain = 0
KSC1 090315Z 21007KT 19/05 A2987 RMK A01 T01900053  RH  041%=      5-min Rain = 0
KSC1 090316Z 21007KT 19/05 A2987 RMK A01 T01900053  RH  041%=      5-min Rain = 0
KSC1 090317Z 21006KT 19/05 A2987 RMK A01 T01890053  RH  041%=      5-min Rain = 0
KSC1 090318Z 21006KT 19/05 A2987 RMK A01 T01890053  RH  041%=      5-min Rain = 0
KSC1 090319Z 21007KT 19/05 A2987 RMK A01 T01890053  RH  041%=      5-min Rain = 0
KSC1 090320Z 21008KT 19/05 A2987 RMK A01 T01900054  RH  041%=      5-min Rain = 0
KSC1 090321Z 22008KT 19/06 A2987 RMK A01 T01910055  RH  041%=      5-min Rain = 0
KSC1 090322Z 22007KT 19/06 A2987 RMK A01 T01910055  RH  041%=      5-min Rain = 0
KSC1 090323Z 21007KT 19/06 A2987 RMK A01 T01920055  RH  041%=      5-min Rain = 0
KSC1 090324Z 21007KT 19/06 A2987 RMK A01 T01920055  RH  041%=      5-min Rain = 0
KSC1 090325Z 21006KT 19/06 A2987 RMK A01 T01920055  RH  041%=      5-min Rain = 0
KSC1 090326Z 21006KT 19/06 A2987 RMK A01 T01910055  RH  041%=      5-min Rain = 0
KSC1 090327Z 21007KT 19/06 A2987 RMK A01 T01910055  RH  041%=      5-min Rain = 0
KSC1 090328Z 19006KT 19/06 A2987 RMK A01 T01900055  RH  041%=      5-min Rain = 0
KSC1 090329Z 19009KT 19/06 A2987 RMK A01 T01900055  RH  041%=      5-min Rain = 0
KSC1 090330Z 20009KT 19/05 A2987 RMK A01 T01890054  RH  041%=      5-min Rain = 0
KSC1 090331Z 20009KT 19/05 A2987 RMK A01 T01870053  RH  041%=      5-min Rain = 0
KSC1 090332Z 19009KT 19/05 A2987 RMK A01 T01850053  RH  042%=      5-min Rain = 0
KSC1 090333Z 20011KT 18/05 A2987 RMK A01 T01840053  RH  042%=      5-min Rain = 0
KSC1 090334Z 20008KT 18/05 A2987 RMK A01 T01830053  RH  042%=      5-min Rain = 0
KSC1 090335Z 20007KT 18/05 A2987 RMK A01 T01820053  RH  042%=      5-min Rain = 0
KSC1 090336Z 20007KT 18/05 A2987 RMK A01 T01810053  RH  043%=      5-min Rain = 0
KSC1 090337Z 20007KT 18/05 A2986 RMK A01 T01800053  RH  043%=      5-min Rain = 0
KSC1 090338Z 20006KT 18/05 A2986 RMK A01 T01790053  RH  043%=      5-min Rain = 0
KSC1 090339Z 20007KT 18/05 A2986 RMK A01 T01780053  RH  044%=      5-min Rain = 0
KSC1 090340Z 20008KT 18/05 A2986 RMK A01 T01780053  RH  044%=      5-min Rain = 0
KSC1 090341Z 20008KT 18/05 A2986 RMK A01 T01780053  RH  044%=      5-min Rain = 0
KSC1 090342Z 20008KT 18/05 A2986 RMK A01 T01780053  RH  044%=      5-min Rain = 0
KSC1 090343Z 21006KT 18/05 A2986 RMK A01 T01770053  RH  044%=      5-min Rain = 0
KSC1 090344Z 21007KT 18/05 A2986 RMK A01 T01770053  RH  044%=      5-min Rain = 0
KSC1 090345Z 21007KT 18/05 A2986 RMK A01 T01760053  RH  044%=      5-min Rain = 0
KSC1 090346Z 21008KT 18/05 A2986 RMK A01 T01760053  RH  044%=      5-min Rain = 0
KSC1 090347Z 19009KT 18/05 A2986 RMK A01 T01760053  RH  044%=      5-min Rain = 0
KSC1 090348Z 20010KT 18/05 A2986 RMK A01 T01760053  RH  044%=      5-min Rain = 0
KSC1 090349Z 20009KT 18/05 A2986 RMK A01 T01760053  RH  044%=      5-min Rain = 0
KSC1 090350Z 20009KT 18/05 A2986 RMK A01 T01760053  RH  044%=      5-min Rain = 0
KSC1 090351Z 20008KT 18/05 A2986 RMK A01 T01760053  RH  044%=      5-min Rain = 0
KSC1 090352Z 20008KT 18/05 A2986 RMK A01 T01760054  RH  045%=      5-min Rain = 0
KSC1 090353Z 20008KT 18/05 A2986 RMK A01 T01750054  RH  045%=      5-min Rain = 0
KSC1 090354Z 20008KT 18/05 A2987 RMK A01 T01760054  RH  045%=      5-min Rain = 0
KSC1 090355Z 20008KT 18/05 A2987 RMK A01 T01750054  RH  045%=      5-min Rain = 0
KSC1 090356Z 21008KT 18/05 A2987 RMK A01 T01750054  RH  045%=      5-min Rain = 0
KSC1 090357Z 21009KT 18/05 A2987 RMK A01 T01760054  RH  045%=      5-min Rain = 0
KSC1 090358Z 21007KT 18/05 A2987 RMK A01 T01760054  RH  045%=      5-min Rain = 0
KSC1 090359Z 21008KT 18/05 A2987 RMK A01 T01760054  RH  045%=      5-min Rain = 0
KSC1 090400Z 20007KT 18/05 A2987 RMK A01 T01760054  RH  045%=      5-min Rain = 0
KSC1 090401Z 21009KT 18/05 A2987 RMK A01 T01750054  RH  045%=      5-min Rain = 0
KSC1 090402Z 21009KT 18/05 A2987 RMK A01 T01750054  RH  045%=      5-min Rain = 0
KSC1 090403Z 21008KT 18/06 A2987 RMK A01 T01750055  RH  045%=      5-min Rain = 0
KSC1 090404Z 20008KT 18/05 A2987 RMK A01 T01750054  RH  045%=      5-min Rain = 0
KSC1 090405Z 20007KT 18/05 A2987 RMK A01 T01750054  RH  045%=      5-min Rain = 0
KSC1 090406Z 20008KT 18/06 A2987 RMK A01 T01750055  RH  045%=      5-min Rain = 0
KSC1 090407Z 21006KT 18/05 A2987 RMK A01 T01750054  RH  045%=      5-min Rain = 0
KSC1 090408Z 20007KT 18/05 A2987 RMK A01 T01750054  RH  045%=      5-min Rain = 0
KSC1 090409Z 19006KT 17/05 A2987 RMK A01 T01740054  RH  045%=      5-min Rain = 0
KSC1 090410Z 19009KT 17/06 A2987 RMK A01 T01740055  RH  045%=      5-min Rain = 0
KSC1 090411Z 19009KT 17/06 A2987 RMK A01 T01730055  RH  046%=      5-min Rain = 0
KSC1 090412Z 19008KT 17/06 A2987 RMK A01 T01730055  RH  046%=      5-min Rain = 0
KSC1 090413Z 19008KT 17/06 A2988 RMK A01 T01730055  RH  046%=      5-min Rain = 0
KSC1 090414Z 19006KT 17/06 A2987 RMK A01 T01730055  RH  046%=      5-min Rain = 0
KSC1 090415Z 20006KT 17/06 A2988 RMK A01 T01730055  RH  046%=      5-min Rain = 0
KSC1 090416Z 22005KT 17/06 A2988 RMK A01 T01720055  RH  046%=      5-min Rain = 0
KSC1 090417Z 23005KT 17/06 A2988 RMK A01 T01720055  RH  046%=      5-min Rain = 0
KSC1 090418Z 23006KT 17/06 A2988 RMK A01 T01720055  RH  046%=      5-min Rain = 0
KSC1 090419Z 23005KT 17/06 A2988 RMK A01 T01710055  RH  046%=      5-min Rain = 0
KSC1 090420Z 23005KT 17/06 A2988 RMK A01 T01710055  RH  046%=      5-min Rain = 0
KSC1 090421Z 21006KT 17/06 A2987 RMK A01 T01700055  RH  046%=      5-min Rain = 0
KSC1 090422Z 20007KT 17/06 A2987 RMK A01 T01700055  RH  046%=      5-min Rain = 0
KSC1 090423Z 19007KT 17/06 A2987 RMK A01 T01710055  RH  047%=      5-min Rain = 0
KSC1 090424Z 19010KT 17/06 A2987 RMK A01 T01700055  RH  047%=      5-min Rain = 0
KSC1 090425Z 20008KT 17/06 A2987 RMK A01 T01710056  RH  046%=      5-min Rain = 0
KSC1 090426Z 21007KT 17/06 A2987 RMK A01 T01720056  RH  046%=      5-min Rain = 0
KSC1 090427Z 20008KT 17/06 A2987 RMK A01 T01720056  RH  046%=      5-min Rain = 0
KSC1 090428Z 19009KT 17/06 A2987 RMK A01 T01720056  RH  046%=      5-min Rain = 0
KSC1 090429Z 19008KT 17/06 A2987 RMK A01 T01720056  RH  046%=      5-min Rain = 0
KSC1 090430Z 20008KT 17/06 A2987 RMK A01 T01730056  RH  046%=      5-min Rain = 0
KSC1 090431Z 20008KT 17/06 A2988 RMK A01 T01730056  RH  046%=      5-min Rain = 0
KSC1 090432Z 20009KT 17/06 A2988 RMK A01 T01730056  RH  046%=      5-min Rain = 0
KSC1 090433Z 20009KT 17/06 A2988 RMK A01 T01730056  RH  046%=      5-min Rain = 0
KSC1 090434Z 20008KT 17/06 A2988 RMK A01 T01740057  RH  046%=      5-min Rain = 0
KSC1 090435Z 20008KT 17/06 A2988 RMK A01 T01740056  RH  046%=      5-min Rain = 0
KSC1 090436Z 20006KT 17/06 A2988 RMK A01 T01740056  RH  046%=      5-min Rain = 0
KSC1 090437Z 20007KT 17/06 A2988 RMK A01 T01740057  RH  046%=      5-min Rain = 0
KSC1 090438Z 20008KT 17/06 A2988 RMK A01 T01740057  RH  046%=      5-min Rain = 0
KSC1 090439Z 20009KT 17/06 A2988 RMK A01 T01740057  RH  046%=      5-min Rain = 0
KSC1 090440Z 20007KT 17/06 A2988 RMK A01 T01730057  RH  046%=      5-min Rain = 0
KSC1 090441Z 20008KT 17/06 A2988 RMK A01 T01740057  RH  046%=      5-min Rain = 0
KSC1 090442Z 20008KT 17/06 A2988 RMK A01 T01740057  RH  046%=      5-min Rain = 0
KSC1 090443Z 21007KT 17/06 A2988 RMK A01 T01740057  RH  046%=      5-min Rain = 0
KSC1 090444Z 21006KT 17/06 A2988 RMK A01 T01740057  RH  046%=      5-min Rain = 0
KSC1 090445Z 21006KT 17/06 A2988 RMK A01 T01740057  RH  046%=      5-min Rain = 0
KSC1 090446Z 21007KT 17/06 A2988 RMK A01 T01740057  RH  046%=      5-min Rain = 0
KSC1 090447Z 20007KT 17/06 A2988 RMK A01 T01730057  RH  046%=      5-min Rain = 0
KSC1 090448Z 20008KT 17/06 A2988 RMK A01 T01730057  RH  046%=      5-min Rain = 0
KSC1 090449Z 21007KT 17/06 A2988 RMK A01 T01730057  RH  046%=      5-min Rain = 0
KSC1 090450Z 20007KT 17/06 A2988 RMK A01 T01730057  RH  046%=      5-min Rain = 0
KSC1 090451Z 20008G13KT 17/06 A2988 RMK A01 T01730057  RH  047%=      5-min Rain = 0
KSC1 090452Z 21009KT 17/06 A2988 RMK A01 T01730057  RH  046%=      5-min Rain = 0
KSC1 090453Z 21009KT 17/06 A2988 RMK A01 T01740057  RH  046%=      5-min Rain = 0
KSC1 090454Z 21010KT 17/06 A2988 RMK A01 T01740057  RH  046%=      5-min Rain = 0
KSC1 090455Z 22009KT 17/06 A2988 RMK A01 T01740057  RH  046%=      5-min Rain = 0
KSC1 090456Z 21008KT 17/06 A2988 RMK A01 T01740057  RH  046%=      5-min Rain = 0
KSC1 090457Z 22007KT 17/06 A2988 RMK A01 T01740057  RH  046%=      5-min Rain = 0
KSC1 090458Z 20008KT 17/06 A2988 RMK A01 T01740058  RH  046%=      5-min Rain = 0
KSC1 090459Z 21008KT 17/06 A2988 RMK A01 T01730057  RH  046%=      5-min Rain = 0
KSC1 090500Z 21008KT 17/06 A2988 RMK A01 T01730057  RH  046%=      5-min Rain = 0
KSC1 090501Z 21010KT 17/06 A2988 RMK A01 T01730057  RH  046%=      5-min Rain = 0
KSC1 090502Z 20009KT 17/06 A2988 RMK A01 T01730058  RH  047%=      5-min Rain = 0
KSC1 090503Z 21008KT 17/06 A2988 RMK A01 T01730057  RH  047%=      5-min Rain = 0
KSC1 090504Z 21007KT 17/06 A2988 RMK A01 T01730058  RH  047%=      5-min Rain = 0
KSC1 090505Z 21009KT 17/06 A2989 RMK A01 T01720058  RH  047%=      5-min Rain = 0
KSC1 090506Z 21009KT 17/06 A2989 RMK A01 T01720058  RH  047%=      5-min Rain = 0
KSC1 090507Z 21009KT 17/06 A2989 RMK A01 T01720058  RH  047%=      5-min Rain = 0
KSC1 090508Z 21009KT 17/06 A2989 RMK A01 T01720058  RH  047%=      5-min Rain = 0
KSC1 090509Z 20010KT 17/06 A2989 RMK A01 T01720058  RH  047%=      5-min Rain = 0
KSC1 090510Z 20010KT 17/06 A2989 RMK A01 T01720058  RH  047%=      5-min Rain = 0
KSC1 090511Z 20009KT 17/06 A2989 RMK A01 T01720057  RH  047%=      5-min Rain = 0
KSC1 090512Z 20009KT 17/06 A2989 RMK A01 T01720058  RH  047%=      5-min Rain = 0
KSC1 090513Z 21009KT 17/06 A2989 RMK A01 T01720058  RH  047%=      5-min Rain = 0
KSC1 090514Z 20009KT 17/06 A2989 RMK A01 T01720058  RH  047%=      5-min Rain = 0
KSC1 090515Z 20009KT 17/06 A2989 RMK A01 T01720058  RH  047%=      5-min Rain = 0
KSC1 090516Z 20010KT 17/06 A2989 RMK A01 T01720058  RH  047%=      5-min Rain = 0
KSC1 090517Z 20008KT 17/06 A2989 RMK A01 T01720057  RH  047%=      5-min Rain = 0
KSC1 090518Z 20009KT 17/06 A2989 RMK A01 T01730058  RH  047%=      5-min Rain = 0
KSC1 090519Z 20008KT 17/06 A2989 RMK A01 T01720058  RH  047%=      5-min Rain = 0
KSC1 090520Z 21009KT 17/06 A2989 RMK A01 T01720058  RH  047%=      5-min Rain = 0
KSC1 090521Z 20007KT 17/06 A2988 RMK A01 T01720058  RH  047%=      5-min Rain = 0
KSC1 090522Z 21008KT 17/06 A2988 RMK A01 T01720058  RH  047%=      5-min Rain = 0
KSC1 090523Z 20008KT 17/06 A2988 RMK A01 T01720058  RH  047%=      5-min Rain = 0
KSC1 090524Z 20010KT 17/06 A2988 RMK A01 T01720058  RH  047%=      5-min Rain = 0
KSC1 090525Z 20009KT 17/06 A2988 RMK A01 T01730058  RH  047%=      5-min Rain = 0
KSC1 090526Z 19008KT 17/06 A2988 RMK A01 T01730058  RH  047%=      5-min Rain = 0
KSC1 090527Z 19009KT 17/06 A2988 RMK A01 T01730058  RH  047%=      5-min Rain = 0
KSC1 090528Z 20010KT 17/06 A2988 RMK A01 T01730058  RH  047%=      5-min Rain = 0
KSC1 090529Z 20010KT 17/06 A2988 RMK A01 T01720058  RH  047%=      5-min Rain = 0
KSC1 090530Z 20008KT 17/06 A2988 RMK A01 T01720058  RH  047%=      5-min Rain = 0
KSC1 090531Z 20008KT 17/06 A2988 RMK A01 T01710057  RH  047%=      5-min Rain = 0
KSC1 090532Z 20007KT 17/06 A2988 RMK A01 T01710057  RH  047%=      5-min Rain = 0
KSC1 090533Z 20007KT 17/06 A2988 RMK A01 T01700057  RH  047%=      5-min Rain = 0
KSC1 090534Z 21007KT 17/06 A2988 RMK A01 T01700058  RH  048%=      5-min Rain = 0
KSC1 090535Z 21007KT 17/06 A2988 RMK A01 T01690057  RH  048%=      5-min Rain = 0
KSC1 090536Z 21008KT 17/06 A2988 RMK A01 T01690057  RH  048%=      5-min Rain = 0
KSC1 090537Z 21008KT 17/06 A2988 RMK A01 T01690058  RH  048%=      5-min Rain = 0
KSC1 090538Z 21007KT 17/06 A2988 RMK A01 T01690058  RH  048%=      5-min Rain = 0
KSC1 090539Z 21008KT 17/06 A2988 RMK A01 T01690058  RH  048%=      5-min Rain = 0
KSC1 090540Z 21007KT 17/06 A2988 RMK A01 T01680058  RH  048%=      5-min Rain = 0
KSC1 090541Z 21008KT 17/06 A2988 RMK A01 T01680058  RH  048%=      5-min Rain = 0
KSC1 090542Z 20008KT 17/06 A2988 RMK A01 T01680058  RH  048%=      5-min Rain = 0
KSC1 090543Z 21008KT 17/06 A2988 RMK A01 T01680058  RH  048%=      5-min Rain = 0
KSC1 090544Z 20010KT 17/06 A2988 RMK A01 T01680058  RH  048%=      5-min Rain = 0
KSC1 090545Z 20010KT 17/06 A2988 RMK A01 T01680058  RH  048%=      5-min Rain = 0
KSC1 090546Z 20009KT 17/06 A2988 RMK A01 T01680058  RH  048%=      5-min Rain = 0
KSC1 090547Z 20010KT 17/06 A2988 RMK A01 T01680058  RH  048%=      5-min Rain = 0
KSC1 090548Z 20011KT 17/06 A2988 RMK A01 T01670058  RH  048%=      5-min Rain = 0
KSC1 090549Z 20011KT 17/06 A2988 RMK A01 T01670058  RH  048%=      5-min Rain = 0
KSC1 090550Z 20008KT 17/06 A2988 RMK A01 T01670058  RH  048%=      5-min Rain = 0
KSC1 090551Z 21008KT 17/06 A2988 RMK A01 T01670058  RH  048%=      5-min Rain = 0
KSC1 090552Z 20009KT 17/06 A2988 RMK A01 T01670058  RH  049%=      5-min Rain = 0
KSC1 090553Z 21008KT 17/06 A2988 RMK A01 T01660058  RH  049%=      5-min Rain = 0
KSC1 090554Z 21010KT 17/06 A2988 RMK A01 T01660058  RH  049%=      5-min Rain = 0
KSC1 090555Z 20010KT 17/06 A2988 RMK A01 T01660058  RH  049%=      5-min Rain = 0
KSC1 090556Z 20009KT 17/06 A2988 RMK A01 T01660058  RH  049%=      5-min Rain = 0
KSC1 090557Z 20009KT 17/06 A2988 RMK A01 T01660058  RH  049%=      5-min Rain = 0
KSC1 090558Z 20009KT 17/06 A2988 RMK A01 T01660058  RH  049%=      5-min Rain = 0
KSC1 090559Z 20010KT 17/06 A2988 RMK A01 T01660058  RH  049%=      5-min Rain = 0

Page generated in 0.0813 seconds.